<?xml version="1.0" encoding="UTF-8" standalone="no" ?>
<gpx xmlns="http://www.topografix.com/GPX/1/1" xmlns:xsi="http://www.w3.org/2001/XMLSchema-instance" xsi:schemaLocation="http://www.topografix.com/GPX/1/1 http://www.topografix.com/GPX/1/1/gpx.xsd" version="1.1" creator="VisuGPX - https://www.visugpx.com">
  <metadata>
    <name>Mornas</name>
  </metadata>
  <trk>
    <name><![CDATA[Parcours 1 sens inverse]]></name>
    <trkseg>
      <trkpt lat="44.2145" lon="4.74522">
        <ele>108.76011937235</ele>
        <time>2022-06-29T07:44:38.000Z</time>
      </trkpt>
      <trkpt lat="44.21447" lon="4.74521">
        <ele>108.19839220126</ele>
        <time>2022-06-29T07:44:38.001Z</time>
      </trkpt>
      <trkpt lat="44.21434" lon="4.74525">
        <ele>107.56676277095</ele>
        <time>2022-06-29T07:44:38.006Z</time>
      </trkpt>
      <trkpt lat="44.21402" lon="4.74532">
        <ele>106.48574411842</ele>
        <time>2022-06-29T07:44:38.022Z</time>
      </trkpt>
      <trkpt lat="44.21394" lon="4.74535">
        <ele>105.50759556073</ele>
        <time>2022-06-29T07:44:38.041Z</time>
      </trkpt>
      <trkpt lat="44.21387" lon="4.74536">
        <ele>104.55976285087</ele>
        <time>2022-06-29T07:44:38.062Z</time>
      </trkpt>
      <trkpt lat="44.21374" lon="4.74547">
        <ele>103.54953295538</ele>
        <time>2022-06-29T07:44:38.088Z</time>
      </trkpt>
      <trkpt lat="44.2136" lon="4.74521">
        <ele>102.7714919694</ele>
        <time>2022-06-29T07:44:38.122Z</time>
      </trkpt>
      <trkpt lat="44.21346" lon="4.74488">
        <ele>102.13899838524</ele>
        <time>2022-06-29T07:44:38.165Z</time>
      </trkpt>
      <trkpt lat="44.21339" lon="4.74495">
        <ele>101.61429466907</ele>
        <time>2022-06-29T07:44:38.211Z</time>
      </trkpt>
      <trkpt lat="44.21329" lon="4.74534">
        <ele>100.85857297682</ele>
        <time>2022-06-29T07:44:38.267Z</time>
      </trkpt>
      <trkpt lat="44.21298" lon="4.74621">
        <ele>100.38480386239</ele>
        <time>2022-06-29T07:44:38.346Z</time>
      </trkpt>
      <trkpt lat="44.21288" lon="4.74657">
        <ele>100.14882361053</ele>
        <time>2022-06-29T07:44:38.435Z</time>
      </trkpt>
      <trkpt lat="44.21287" lon="4.74672">
        <ele>99.95179676664</ele>
        <time>2022-06-29T07:44:38.527Z</time>
      </trkpt>
      <trkpt lat="44.21287" lon="4.74677">
        <ele>99.85173679227</ele>
        <time>2022-06-29T07:44:38.620Z</time>
      </trkpt>
      <trkpt lat="44.21289" lon="4.74677">
        <ele>99.85434213865</ele>
        <time>2022-06-29T07:44:38.714Z</time>
      </trkpt>
      <trkpt lat="44.21288" lon="4.74677">
        <ele>99.9628754385</ele>
        <time>2022-06-29T07:44:38.808Z</time>
      </trkpt>
      <trkpt lat="44.21287" lon="4.74677">
        <ele>99.85173679227</ele>
        <time>2022-06-29T07:44:38.902Z</time>
      </trkpt>
      <trkpt lat="44.21291" lon="4.74711">
        <ele>100.27379688529</ele>
        <time>2022-06-29T07:44:39.005Z</time>
      </trkpt>
      <trkpt lat="44.21296" lon="4.748">
        <ele>100.24421585566</ele>
        <time>2022-06-29T07:44:39.129Z</time>
      </trkpt>
      <trkpt lat="44.21296" lon="4.74801">
        <ele>100.56632265484</ele>
        <time>2022-06-29T07:44:39.253Z</time>
      </trkpt>
      <trkpt lat="44.21296" lon="4.74809">
        <ele>101.01921835506</ele>
        <time>2022-06-29T07:44:39.379Z</time>
      </trkpt>
      <trkpt lat="44.21304" lon="4.74863">
        <ele>101.67196421328</ele>
        <time>2022-06-29T07:44:39.518Z</time>
      </trkpt>
      <trkpt lat="44.21234" lon="4.74862">
        <ele>103.13764240727</ele>
        <time>2022-06-29T07:44:39.680Z</time>
      </trkpt>
      <trkpt lat="44.21147" lon="4.74867">
        <ele>104.71065760812</ele>
        <time>2022-06-29T07:44:39.871Z</time>
      </trkpt>
      <trkpt lat="44.21144" lon="4.74871">
        <ele>105.98386530642</ele>
        <time>2022-06-29T07:44:40.064Z</time>
      </trkpt>
      <trkpt lat="44.21143" lon="4.74874">
        <ele>107.23124435688</ele>
        <time>2022-06-29T07:44:40.258Z</time>
      </trkpt>
      <trkpt lat="44.21143" lon="4.74874">
        <ele>108.44618154962</ele>
        <time>2022-06-29T07:44:40.452Z</time>
      </trkpt>
      <trkpt lat="44.2114" lon="4.74886">
        <ele>109.6691533827</ele>
        <time>2022-06-29T07:44:40.649Z</time>
      </trkpt>
      <trkpt lat="44.21139" lon="4.74923">
        <ele>110.92282527622</ele>
        <time>2022-06-29T07:44:40.855Z</time>
      </trkpt>
      <trkpt lat="44.21134" lon="4.74928">
        <ele>112.13367955048</ele>
        <time>2022-06-29T07:44:41.062Z</time>
      </trkpt>
      <trkpt lat="44.21122" lon="4.74934">
        <ele>113.39182063178</ele>
        <time>2022-06-29T07:44:41.274Z</time>
      </trkpt>
      <trkpt lat="44.21118" lon="4.74939">
        <ele>114.58048961972</ele>
        <time>2022-06-29T07:44:41.488Z</time>
      </trkpt>
      <trkpt lat="44.21118" lon="4.75016">
        <ele>115.96677593056</ele>
        <time>2022-06-29T07:44:41.720Z</time>
      </trkpt>
      <trkpt lat="44.21116" lon="4.75029">
        <ele>117.1308221412</ele>
        <time>2022-06-29T07:44:41.955Z</time>
      </trkpt>
      <trkpt lat="44.21109" lon="4.75035">
        <ele>118.29511748847</ele>
        <time>2022-06-29T07:44:42.193Z</time>
      </trkpt>
      <trkpt lat="44.21104" lon="4.75038">
        <ele>119.46158578313</ele>
        <time>2022-06-29T07:44:42.433Z</time>
      </trkpt>
      <trkpt lat="44.21104" lon="4.75038">
        <ele>120.63141023023</ele>
        <time>2022-06-29T07:44:42.673Z</time>
      </trkpt>
      <trkpt lat="44.21104" lon="4.75038">
        <ele>121.82111728819</ele>
        <time>2022-06-29T07:44:42.913Z</time>
      </trkpt>
      <trkpt lat="44.21071" lon="4.75054">
        <ele>123.12102077366</ele>
        <time>2022-06-29T07:44:43.164Z</time>
      </trkpt>
      <trkpt lat="44.21055" lon="4.75055">
        <ele>124.53108113786</ele>
        <time>2022-06-29T07:44:43.421Z</time>
      </trkpt>
      <trkpt lat="44.21041" lon="4.75051">
        <ele>125.99269816762</ele>
        <time>2022-06-29T07:44:43.683Z</time>
      </trkpt>
      <trkpt lat="44.21023" lon="4.75052">
        <ele>127.55929458864</ele>
        <time>2022-06-29T07:44:43.951Z</time>
      </trkpt>
      <trkpt lat="44.21012" lon="4.75051">
        <ele>129.13690384819</ele>
        <time>2022-06-29T07:44:44.222Z</time>
      </trkpt>
      <trkpt lat="44.20989" lon="4.75037">
        <ele>130.97013317976</ele>
        <time>2022-06-29T07:44:44.502Z</time>
      </trkpt>
      <trkpt lat="44.20971" lon="4.75034">
        <ele>132.74421148755</ele>
        <time>2022-06-29T07:44:44.787Z</time>
      </trkpt>
      <trkpt lat="44.20971" lon="4.75034">
        <ele>134.30125689381</ele>
        <time>2022-06-29T07:44:45.072Z</time>
      </trkpt>
      <trkpt lat="44.20972" lon="4.75012">
        <ele>135.88170223397</ele>
        <time>2022-06-29T07:44:45.363Z</time>
      </trkpt>
      <trkpt lat="44.20991" lon="4.74967">
        <ele>137.27264672096</ele>
        <time>2022-06-29T07:44:45.666Z</time>
      </trkpt>
      <trkpt lat="44.20993" lon="4.74955">
        <ele>138.75567689312</ele>
        <time>2022-06-29T07:44:45.972Z</time>
      </trkpt>
      <trkpt lat="44.20989" lon="4.74943">
        <ele>140.24121911899</ele>
        <time>2022-06-29T07:44:46.281Z</time>
      </trkpt>
      <trkpt lat="44.20983" lon="4.74934">
        <ele>141.70795482361</ele>
        <time>2022-06-29T07:44:46.593Z</time>
      </trkpt>
      <trkpt lat="44.20948" lon="4.74914">
        <ele>143.53396939016</ele>
        <time>2022-06-29T07:44:46.918Z</time>
      </trkpt>
      <trkpt lat="44.2091" lon="4.74879">
        <ele>145.35883221365</ele>
        <time>2022-06-29T07:44:47.258Z</time>
      </trkpt>
      <trkpt lat="44.20891" lon="4.74864">
        <ele>146.8626832935</ele>
        <time>2022-06-29T07:44:47.605Z</time>
      </trkpt>
      <trkpt lat="44.20879" lon="4.7486">
        <ele>148.26267589005</ele>
        <time>2022-06-29T07:44:47.956Z</time>
      </trkpt>
      <trkpt lat="44.20874" lon="4.74859">
        <ele>149.52052779462</ele>
        <time>2022-06-29T07:44:48.309Z</time>
      </trkpt>
      <trkpt lat="44.20872" lon="4.74867">
        <ele>150.67857055242</ele>
        <time>2022-06-29T07:44:48.664Z</time>
      </trkpt>
      <trkpt lat="44.2087" lon="4.74861">
        <ele>151.78303819518</ele>
        <time>2022-06-29T07:44:49.021Z</time>
      </trkpt>
      <trkpt lat="44.2087" lon="4.74862">
        <ele>152.79166381723</ele>
        <time>2022-06-29T07:44:49.378Z</time>
      </trkpt>
      <trkpt lat="44.20872" lon="4.74867">
        <ele>153.70665644071</ele>
        <time>2022-06-29T07:44:49.736Z</time>
      </trkpt>
      <trkpt lat="44.20852" lon="4.74983">
        <ele>154.83381395279</ele>
        <time>2022-06-29T07:44:50.122Z</time>
      </trkpt>
      <trkpt lat="44.20841" lon="4.75237">
        <ele>155.87076988828</ele>
        <time>2022-06-29T07:44:50.569Z</time>
      </trkpt>
      <trkpt lat="44.20842" lon="4.75276">
        <ele>156.58738838487</ele>
        <time>2022-06-29T07:44:51.026Z</time>
      </trkpt>
      <trkpt lat="44.20839" lon="4.75302">
        <ele>157.21830816135</ele>
        <time>2022-06-29T07:44:51.489Z</time>
      </trkpt>
      <trkpt lat="44.20832" lon="4.75365">
        <ele>157.76478536525</ele>
        <time>2022-06-29T07:44:51.967Z</time>
      </trkpt>
      <trkpt lat="44.20828" lon="4.75411">
        <ele>158.22297191302</ele>
        <time>2022-06-29T07:44:52.457Z</time>
      </trkpt>
      <trkpt lat="44.20829" lon="4.7544">
        <ele>158.57334066694</ele>
        <time>2022-06-29T07:44:52.953Z</time>
      </trkpt>
      <trkpt lat="44.20841" lon="4.75513">
        <ele>158.95559344747</ele>
        <time>2022-06-29T07:44:53.467Z</time>
      </trkpt>
      <trkpt lat="44.2085" lon="4.75557">
        <ele>159.02832459091</ele>
        <time>2022-06-29T07:44:53.992Z</time>
      </trkpt>
      <trkpt lat="44.20866" lon="4.7559">
        <ele>158.89282537677</ele>
        <time>2022-06-29T07:44:54.527Z</time>
      </trkpt>
      <trkpt lat="44.20882" lon="4.75608">
        <ele>158.87872655385</ele>
        <time>2022-06-29T07:44:55.069Z</time>
      </trkpt>
      <trkpt lat="44.20888" lon="4.75619">
        <ele>158.82142622223</ele>
        <time>2022-06-29T07:44:55.614Z</time>
      </trkpt>
      <trkpt lat="44.20891" lon="4.75632">
        <ele>158.73090149327</ele>
        <time>2022-06-29T07:44:56.162Z</time>
      </trkpt>
      <trkpt lat="44.20894" lon="4.7566">
        <ele>158.65197996389</ele>
        <time>2022-06-29T07:44:56.717Z</time>
      </trkpt>
      <trkpt lat="44.20907" lon="4.75708">
        <ele>158.64353594378</ele>
        <time>2022-06-29T07:44:57.284Z</time>
      </trkpt>
      <trkpt lat="44.20908" lon="4.75726">
        <ele>158.58349743436</ele>
        <time>2022-06-29T07:44:57.856Z</time>
      </trkpt>
      <trkpt lat="44.20895" lon="4.75817">
        <ele>158.22754043196</ele>
        <time>2022-06-29T07:44:58.450Z</time>
      </trkpt>
      <trkpt lat="44.20887" lon="4.75839">
        <ele>158.05851249767</ele>
        <time>2022-06-29T07:44:59.050Z</time>
      </trkpt>
      <trkpt lat="44.20895" lon="4.75864">
        <ele>158.00366847362</ele>
        <time>2022-06-29T07:44:59.657Z</time>
      </trkpt>
      <trkpt lat="44.20896" lon="4.75883">
        <ele>157.98051459324</ele>
        <time>2022-06-29T07:45:00.268Z</time>
      </trkpt>
      <trkpt lat="44.20896" lon="4.75883">
        <ele>158.06334308785</ele>
        <time>2022-06-29T07:45:00.879Z</time>
      </trkpt>
      <trkpt lat="44.20896" lon="4.75883">
        <ele>158.21717676688</ele>
        <time>2022-06-29T07:45:01.490Z</time>
      </trkpt>
      <trkpt lat="44.20896" lon="4.75888">
        <ele>158.45883602501</ele>
        <time>2022-06-29T07:45:02.103Z</time>
      </trkpt>
      <trkpt lat="44.20904" lon="4.7593">
        <ele>158.86518486525</ele>
        <time>2022-06-29T07:45:02.726Z</time>
      </trkpt>
      <trkpt lat="44.20904" lon="4.75947">
        <ele>159.29146256637</ele>
        <time>2022-06-29T07:45:03.353Z</time>
      </trkpt>
      <trkpt lat="44.20917" lon="4.75965">
        <ele>159.77158052216</ele>
        <time>2022-06-29T07:45:03.986Z</time>
      </trkpt>
      <trkpt lat="44.20923" lon="4.75987">
        <ele>160.32625938234</ele>
        <time>2022-06-29T07:45:04.625Z</time>
      </trkpt>
      <trkpt lat="44.20918" lon="4.76076">
        <ele>161.15199125076</ele>
        <time>2022-06-29T07:45:05.285Z</time>
      </trkpt>
      <trkpt lat="44.20919" lon="4.76092">
        <ele>161.84569963571</ele>
        <time>2022-06-29T07:45:05.949Z</time>
      </trkpt>
      <trkpt lat="44.20921" lon="4.76119">
        <ele>162.55720976058</ele>
        <time>2022-06-29T07:45:06.620Z</time>
      </trkpt>
      <trkpt lat="44.20928" lon="4.76163">
        <ele>163.17520655683</ele>
        <time>2022-06-29T07:45:07.301Z</time>
      </trkpt>
      <trkpt lat="44.20939" lon="4.76203">
        <ele>163.87990928641</ele>
        <time>2022-06-29T07:45:07.993Z</time>
      </trkpt>
      <trkpt lat="44.20955" lon="4.76248">
        <ele>164.76688691178</ele>
        <time>2022-06-29T07:45:08.697Z</time>
      </trkpt>
      <trkpt lat="44.20969" lon="4.76271">
        <ele>165.5362603487</ele>
        <time>2022-06-29T07:45:09.408Z</time>
      </trkpt>
      <trkpt lat="44.20978" lon="4.76292">
        <ele>166.2519480069</ele>
        <time>2022-06-29T07:45:10.125Z</time>
      </trkpt>
      <trkpt lat="44.20985" lon="4.76323">
        <ele>166.85717250381</ele>
        <time>2022-06-29T07:45:10.849Z</time>
      </trkpt>
      <trkpt lat="44.20998" lon="4.76362">
        <ele>167.38994266869</ele>
        <time>2022-06-29T07:45:11.584Z</time>
      </trkpt>
      <trkpt lat="44.21008" lon="4.76402">
        <ele>167.94937629797</ele>
        <time>2022-06-29T07:45:12.329Z</time>
      </trkpt>
      <trkpt lat="44.21015" lon="4.76442">
        <ele>168.44602049687</ele>
        <time>2022-06-29T07:45:13.084Z</time>
      </trkpt>
      <trkpt lat="44.21022" lon="4.76507">
        <ele>168.80372838223</ele>
        <time>2022-06-29T07:45:13.855Z</time>
      </trkpt>
      <trkpt lat="44.21022" lon="4.76542">
        <ele>169.09742820383</ele>
        <time>2022-06-29T07:45:14.634Z</time>
      </trkpt>
      <trkpt lat="44.21023" lon="4.76567">
        <ele>169.38983928438</ele>
        <time>2022-06-29T07:45:15.419Z</time>
      </trkpt>
      <trkpt lat="44.21026" lon="4.76594">
        <ele>169.63905400199</ele>
        <time>2022-06-29T07:45:16.211Z</time>
      </trkpt>
      <trkpt lat="44.21036" lon="4.76649">
        <ele>169.84132677305</ele>
        <time>2022-06-29T07:45:17.016Z</time>
      </trkpt>
      <trkpt lat="44.21041" lon="4.7669">
        <ele>169.91569331945</ele>
        <time>2022-06-29T07:45:17.831Z</time>
      </trkpt>
      <trkpt lat="44.21036" lon="4.76787">
        <ele>169.80726589033</ele>
        <time>2022-06-29T07:45:18.669Z</time>
      </trkpt>
      <trkpt lat="44.21035" lon="4.76828">
        <ele>169.81945528873</ele>
        <time>2022-06-29T07:45:19.517Z</time>
      </trkpt>
      <trkpt lat="44.21036" lon="4.76855">
        <ele>169.7939226133</ele>
        <time>2022-06-29T07:45:20.372Z</time>
      </trkpt>
      <trkpt lat="44.21035" lon="4.76873">
        <ele>169.75052264284</ele>
        <time>2022-06-29T07:45:21.231Z</time>
      </trkpt>
      <trkpt lat="44.21031" lon="4.76877">
        <ele>169.62568378106</ele>
        <time>2022-06-29T07:45:22.092Z</time>
      </trkpt>
      <trkpt lat="44.21027" lon="4.7688">
        <ele>169.44162186272</ele>
        <time>2022-06-29T07:45:22.954Z</time>
      </trkpt>
      <trkpt lat="44.21024" lon="4.76909">
        <ele>169.26633977121</ele>
        <time>2022-06-29T07:45:23.823Z</time>
      </trkpt>
      <trkpt lat="44.21026" lon="4.77009">
        <ele>168.90327058706</ele>
        <time>2022-06-29T07:45:24.716Z</time>
      </trkpt>
      <trkpt lat="44.21024" lon="4.77191">
        <ele>168.03930054497</ele>
        <time>2022-06-29T07:45:25.653Z</time>
      </trkpt>
      <trkpt lat="44.21031" lon="4.77324">
        <ele>167.31535031062</ele>
        <time>2022-06-29T07:45:26.622Z</time>
      </trkpt>
      <trkpt lat="44.21039" lon="4.77529">
        <ele>166.7212422335</ele>
        <time>2022-06-29T07:45:27.640Z</time>
      </trkpt>
      <trkpt lat="44.21039" lon="4.77529">
        <ele>166.09317560101</ele>
        <time>2022-06-29T07:45:28.658Z</time>
      </trkpt>
      <trkpt lat="44.2104" lon="4.77534">
        <ele>165.37985436713</ele>
        <time>2022-06-29T07:45:29.677Z</time>
      </trkpt>
      <trkpt lat="44.21052" lon="4.7774">
        <ele>164.4492976116</ele>
        <time>2022-06-29T07:45:30.746Z</time>
      </trkpt>
      <trkpt lat="44.2105" lon="4.77785">
        <ele>163.5380957218</ele>
        <time>2022-06-29T07:45:31.826Z</time>
      </trkpt>
      <trkpt lat="44.2104" lon="4.77865">
        <ele>162.35876833043</ele>
        <time>2022-06-29T07:45:32.925Z</time>
      </trkpt>
      <trkpt lat="44.21039" lon="4.77877">
        <ele>161.22664281244</ele>
        <time>2022-06-29T07:45:34.027Z</time>
      </trkpt>
      <trkpt lat="44.21039" lon="4.77877">
        <ele>160.00488102897</ele>
        <time>2022-06-29T07:45:35.129Z</time>
      </trkpt>
      <trkpt lat="44.21039" lon="4.77877">
        <ele>161.22664281244</ele>
        <time>2022-06-29T07:45:36.231Z</time>
      </trkpt>
      <trkpt lat="44.21039" lon="4.77877">
        <ele>160.00488102897</ele>
        <time>2022-06-29T07:45:37.333Z</time>
      </trkpt>
      <trkpt lat="44.21039" lon="4.77878">
        <ele>155.4831234581</ele>
        <time>2022-06-29T07:45:38.435Z</time>
      </trkpt>
      <trkpt lat="44.21029" lon="4.77976">
        <ele>153.59642481464</ele>
        <time>2022-06-29T07:45:39.561Z</time>
      </trkpt>
      <trkpt lat="44.2103" lon="4.78016">
        <ele>151.65566546861</ele>
        <time>2022-06-29T07:45:40.697Z</time>
      </trkpt>
      <trkpt lat="44.21028" lon="4.78049">
        <ele>149.47134018168</ele>
        <time>2022-06-29T07:45:41.841Z</time>
      </trkpt>
      <trkpt lat="44.21019" lon="4.78055">
        <ele>147.00874129647</ele>
        <time>2022-06-29T07:45:42.988Z</time>
      </trkpt>
      <trkpt lat="44.21001" lon="4.78061">
        <ele>144.28395074984</ele>
        <time>2022-06-29T07:45:44.141Z</time>
      </trkpt>
      <trkpt lat="44.20928" lon="4.78068">
        <ele>141.07015868899</ele>
        <time>2022-06-29T07:45:45.318Z</time>
      </trkpt>
      <trkpt lat="44.20883" lon="4.78076">
        <ele>137.78036236069</ele>
        <time>2022-06-29T07:45:46.510Z</time>
      </trkpt>
      <trkpt lat="44.20883" lon="4.78076">
        <ele>134.67210484256</ele>
        <time>2022-06-29T07:45:47.702Z</time>
      </trkpt>
      <trkpt lat="44.20835" lon="4.78083">
        <ele>131.08376263946</ele>
        <time>2022-06-29T07:45:48.911Z</time>
      </trkpt>
      <trkpt lat="44.208" lon="4.78087">
        <ele>127.48972101418</ele>
        <time>2022-06-29T07:45:50.132Z</time>
      </trkpt>
      <trkpt lat="44.2075" lon="4.78098">
        <ele>123.65028578098</ele>
        <time>2022-06-29T07:45:51.369Z</time>
      </trkpt>
      <trkpt lat="44.20722" lon="4.7811">
        <ele>119.96633223531</ele>
        <time>2022-06-29T07:45:52.616Z</time>
      </trkpt>
      <trkpt lat="44.20703" lon="4.78119">
        <ele>116.32397501154</ele>
        <time>2022-06-29T07:45:53.870Z</time>
      </trkpt>
      <trkpt lat="44.20651" lon="4.78153">
        <ele>112.40222604957</ele>
        <time>2022-06-29T07:45:55.143Z</time>
      </trkpt>
      <trkpt lat="44.20638" lon="4.78164">
        <ele>108.8557617729</ele>
        <time>2022-06-29T07:45:56.421Z</time>
      </trkpt>
      <trkpt lat="44.20619" lon="4.782">
        <ele>105.16021614803</ele>
        <time>2022-06-29T07:45:57.710Z</time>
      </trkpt>
      <trkpt lat="44.20613" lon="4.7821">
        <ele>101.84071259824</ele>
        <time>2022-06-29T07:45:59.002Z</time>
      </trkpt>
      <trkpt lat="44.20603" lon="4.78217">
        <ele>98.57711839172</ele>
        <time>2022-06-29T07:46:00.298Z</time>
      </trkpt>
      <trkpt lat="44.20537" lon="4.78243">
        <ele>95.12325080897</ele>
        <time>2022-06-29T07:46:01.617Z</time>
      </trkpt>
      <trkpt lat="44.20509" lon="4.78263">
        <ele>92.11270608493</ele>
        <time>2022-06-29T07:46:02.946Z</time>
      </trkpt>
      <trkpt lat="44.20471" lon="4.7828">
        <ele>89.37293667597</ele>
        <time>2022-06-29T07:46:04.288Z</time>
      </trkpt>
      <trkpt lat="44.20453" lon="4.78285">
        <ele>86.79522521253</ele>
        <time>2022-06-29T07:46:05.636Z</time>
      </trkpt>
      <trkpt lat="44.20432" lon="4.78288">
        <ele>84.39672527691</ele>
        <time>2022-06-29T07:46:06.992Z</time>
      </trkpt>
      <trkpt lat="44.20397" lon="4.78278">
        <ele>82.10143268169</ele>
        <time>2022-06-29T07:46:08.359Z</time>
      </trkpt>
      <trkpt lat="44.20348" lon="4.78271">
        <ele>79.96513196906</ele>
        <time>2022-06-29T07:46:09.743Z</time>
      </trkpt>
      <trkpt lat="44.20335" lon="4.78267">
        <ele>78.39535732126</ele>
        <time>2022-06-29T07:46:11.131Z</time>
      </trkpt>
      <trkpt lat="44.20291" lon="4.78248">
        <ele>76.93167610107</ele>
        <time>2022-06-29T07:46:12.535Z</time>
      </trkpt>
      <trkpt lat="44.20267" lon="4.78244">
        <ele>75.7222374089</ele>
        <time>2022-06-29T07:46:13.947Z</time>
      </trkpt>
      <trkpt lat="44.20267" lon="4.78244">
        <ele>74.89040952558</ele>
        <time>2022-06-29T07:46:15.359Z</time>
      </trkpt>
      <trkpt lat="44.20267" lon="4.78244">
        <ele>74.30522733095</ele>
        <time>2022-06-29T07:46:16.771Z</time>
      </trkpt>
      <trkpt lat="44.20262" lon="4.78243">
        <ele>73.93958495126</ele>
        <time>2022-06-29T07:46:18.184Z</time>
      </trkpt>
      <trkpt lat="44.20256" lon="4.78241">
        <ele>73.79345323247</ele>
        <time>2022-06-29T07:46:19.600Z</time>
      </trkpt>
      <trkpt lat="44.20269" lon="4.78097">
        <ele>74.0561841435</ele>
        <time>2022-06-29T07:46:21.050Z</time>
      </trkpt>
      <trkpt lat="44.20273" lon="4.78092">
        <ele>74.38134984568</ele>
        <time>2022-06-29T07:46:22.502Z</time>
      </trkpt>
      <trkpt lat="44.20279" lon="4.78077">
        <ele>74.86770546876</ele>
        <time>2022-06-29T07:46:23.958Z</time>
      </trkpt>
      <trkpt lat="44.2031" lon="4.77974">
        <ele>75.70728253715</ele>
        <time>2022-06-29T07:46:25.441Z</time>
      </trkpt>
      <trkpt lat="44.20321" lon="4.77954">
        <ele>76.55014531033</ele>
        <time>2022-06-29T07:46:26.930Z</time>
      </trkpt>
      <trkpt lat="44.20333" lon="4.77939">
        <ele>77.53204338881</ele>
        <time>2022-06-29T07:46:28.425Z</time>
      </trkpt>
      <trkpt lat="44.20347" lon="4.77927">
        <ele>78.57698472275</ele>
        <time>2022-06-29T07:46:29.925Z</time>
      </trkpt>
      <trkpt lat="44.20387" lon="4.77906">
        <ele>79.8260516771</ele>
        <time>2022-06-29T07:46:31.439Z</time>
      </trkpt>
      <trkpt lat="44.20402" lon="4.77902">
        <ele>81.02238887958</ele>
        <time>2022-06-29T07:46:32.958Z</time>
      </trkpt>
      <trkpt lat="44.2043" lon="4.779">
        <ele>82.35518140403</ele>
        <time>2022-06-29T07:46:34.487Z</time>
      </trkpt>
      <trkpt lat="44.20447" lon="4.77895">
        <ele>83.73358244748</ele>
        <time>2022-06-29T07:46:36.021Z</time>
      </trkpt>
      <trkpt lat="44.20461" lon="4.77883">
        <ele>85.08603030395</ele>
        <time>2022-06-29T07:46:37.561Z</time>
      </trkpt>
      <trkpt lat="44.20483" lon="4.77856">
        <ele>86.45639567194</ele>
        <time>2022-06-29T07:46:39.111Z</time>
      </trkpt>
      <trkpt lat="44.20508" lon="4.77821">
        <ele>87.90411930616</ele>
        <time>2022-06-29T07:46:40.673Z</time>
      </trkpt>
      <trkpt lat="44.20533" lon="4.77779">
        <ele>89.25605473933</ele>
        <time>2022-06-29T07:46:42.248Z</time>
      </trkpt>
      <trkpt lat="44.20538" lon="4.77763">
        <ele>90.53018482363</ele>
        <time>2022-06-29T07:46:43.827Z</time>
      </trkpt>
      <trkpt lat="44.20538" lon="4.77745">
        <ele>91.79613431476</ele>
        <time>2022-06-29T07:46:45.410Z</time>
      </trkpt>
      <trkpt lat="44.20537" lon="4.77721">
        <ele>93.04455221044</ele>
        <time>2022-06-29T07:46:46.999Z</time>
      </trkpt>
      <trkpt lat="44.20532" lon="4.77699">
        <ele>94.29654253888</ele>
        <time>2022-06-29T07:46:48.593Z</time>
      </trkpt>
      <trkpt lat="44.20515" lon="4.77659">
        <ele>95.63482953478</ele>
        <time>2022-06-29T07:46:50.198Z</time>
      </trkpt>
      <trkpt lat="44.20495" lon="4.7763">
        <ele>96.8487641008</ele>
        <time>2022-06-29T07:46:51.813Z</time>
      </trkpt>
      <trkpt lat="44.20473" lon="4.77603">
        <ele>97.97642215232</ele>
        <time>2022-06-29T07:46:53.438Z</time>
      </trkpt>
      <trkpt lat="44.2046" lon="4.77582">
        <ele>99.0529426308</ele>
        <time>2022-06-29T07:46:55.070Z</time>
      </trkpt>
      <trkpt lat="44.20453" lon="4.77551">
        <ele>100.13159419661</ele>
        <time>2022-06-29T07:46:56.709Z</time>
      </trkpt>
      <trkpt lat="44.20453" lon="4.7754">
        <ele>101.10887532625</ele>
        <time>2022-06-29T07:46:58.351Z</time>
      </trkpt>
      <trkpt lat="44.20454" lon="4.77522">
        <ele>102.0961434386</ele>
        <time>2022-06-29T07:46:59.997Z</time>
      </trkpt>
      <trkpt lat="44.2046" lon="4.77509">
        <ele>103.03446338748</ele>
        <time>2022-06-29T07:47:01.647Z</time>
      </trkpt>
      <trkpt lat="44.20467" lon="4.77499">
        <ele>103.95863129012</ele>
        <time>2022-06-29T07:47:03.300Z</time>
      </trkpt>
      <trkpt lat="44.20471" lon="4.77468">
        <ele>104.94798101579</ele>
        <time>2022-06-29T07:47:04.961Z</time>
      </trkpt>
      <trkpt lat="44.20468" lon="4.7743">
        <ele>106.12090197405</ele>
        <time>2022-06-29T07:47:06.631Z</time>
      </trkpt>
      <trkpt lat="44.20465" lon="4.77413">
        <ele>107.11713223293</ele>
        <time>2022-06-29T07:47:08.305Z</time>
      </trkpt>
      <trkpt lat="44.20463" lon="4.77403">
        <ele>108.06911531408</ele>
        <time>2022-06-29T07:47:09.982Z</time>
      </trkpt>
      <trkpt lat="44.20457" lon="4.77375">
        <ele>109.05870803252</ele>
        <time>2022-06-29T07:47:11.666Z</time>
      </trkpt>
      <trkpt lat="44.20457" lon="4.77347">
        <ele>110.01576393974</ele>
        <time>2022-06-29T07:47:13.356Z</time>
      </trkpt>
      <trkpt lat="44.2047" lon="4.7731">
        <ele>110.95091771087</ele>
        <time>2022-06-29T07:47:15.056Z</time>
      </trkpt>
      <trkpt lat="44.20512" lon="4.77237">
        <ele>112.00251817081</ele>
        <time>2022-06-29T07:47:16.779Z</time>
      </trkpt>
      <trkpt lat="44.20522" lon="4.77206">
        <ele>112.88775940975</ele>
        <time>2022-06-29T07:47:18.510Z</time>
      </trkpt>
      <trkpt lat="44.20523" lon="4.77123">
        <ele>114.02324503215</ele>
        <time>2022-06-29T07:47:20.261Z</time>
      </trkpt>
      <trkpt lat="44.20522" lon="4.77081">
        <ele>114.92421218088</ele>
        <time>2022-06-29T07:47:22.022Z</time>
      </trkpt>
      <trkpt lat="44.20521" lon="4.77068">
        <ele>115.7159851829</ele>
        <time>2022-06-29T07:47:23.786Z</time>
      </trkpt>
      <trkpt lat="44.20514" lon="4.77049">
        <ele>117.25136665219</ele>
        <time>2022-06-29T07:47:25.555Z</time>
      </trkpt>
      <trkpt lat="44.20507" lon="4.77032">
        <ele>118.00078732393</ele>
        <time>2022-06-29T07:47:27.329Z</time>
      </trkpt>
      <trkpt lat="44.20494" lon="4.77013">
        <ele>118.70831636934</ele>
        <time>2022-06-29T07:47:29.109Z</time>
      </trkpt>
      <trkpt lat="44.20435" lon="4.76978">
        <ele>119.44592119964</ele>
        <time>2022-06-29T07:47:30.910Z</time>
      </trkpt>
      <trkpt lat="44.20429" lon="4.76971">
        <ele>120.12258706116</ele>
        <time>2022-06-29T07:47:32.714Z</time>
      </trkpt>
      <trkpt lat="44.20426" lon="4.76962">
        <ele>120.77262276059</ele>
        <time>2022-06-29T07:47:34.520Z</time>
      </trkpt>
      <trkpt lat="44.20427" lon="4.7695">
        <ele>121.40441431887</ele>
        <time>2022-06-29T07:47:36.329Z</time>
      </trkpt>
      <trkpt lat="44.20431" lon="4.7694">
        <ele>121.97066433676</ele>
        <time>2022-06-29T07:47:38.141Z</time>
      </trkpt>
      <trkpt lat="44.20448" lon="4.76925">
        <ele>122.49606832246</ele>
        <time>2022-06-29T07:47:39.960Z</time>
      </trkpt>
      <trkpt lat="44.20478" lon="4.76903">
        <ele>123.00458052404</ele>
        <time>2022-06-29T07:47:41.790Z</time>
      </trkpt>
      <trkpt lat="44.2051" lon="4.76885">
        <ele>123.62263258973</ele>
        <time>2022-06-29T07:47:43.632Z</time>
      </trkpt>
      <trkpt lat="44.20574" lon="4.7685">
        <ele>124.39575055611</ele>
        <time>2022-06-29T07:47:45.497Z</time>
      </trkpt>
      <trkpt lat="44.20588" lon="4.76836">
        <ele>125.02571115288</ele>
        <time>2022-06-29T07:47:47.367Z</time>
      </trkpt>
      <trkpt lat="44.20588" lon="4.76836">
        <ele>125.6065878329</ele>
        <time>2022-06-29T07:47:49.237Z</time>
      </trkpt>
      <trkpt lat="44.20588" lon="4.76835">
        <ele>126.20019542011</ele>
        <time>2022-06-29T07:47:51.107Z</time>
      </trkpt>
      <trkpt lat="44.20592" lon="4.76831">
        <ele>126.82440296083</ele>
        <time>2022-06-29T07:47:52.979Z</time>
      </trkpt>
      <trkpt lat="44.20604" lon="4.76813">
        <ele>127.50771230943</ele>
        <time>2022-06-29T07:47:54.857Z</time>
      </trkpt>
      <trkpt lat="44.20604" lon="4.76813">
        <ele>128.1540168541</ele>
        <time>2022-06-29T07:47:56.735Z</time>
      </trkpt>
      <trkpt lat="44.20623" lon="4.76784">
        <ele>128.90693036794</ele>
        <time>2022-06-29T07:47:58.622Z</time>
      </trkpt>
      <trkpt lat="44.20657" lon="4.76744">
        <ele>129.69085546848</ele>
        <time>2022-06-29T07:48:00.524Z</time>
      </trkpt>
      <trkpt lat="44.2066" lon="4.76736">
        <ele>130.41639231883</ele>
        <time>2022-06-29T07:48:02.428Z</time>
      </trkpt>
      <trkpt lat="44.20662" lon="4.76728">
        <ele>131.16380671739</ele>
        <time>2022-06-29T07:48:04.334Z</time>
      </trkpt>
      <trkpt lat="44.20661" lon="4.76717">
        <ele>131.92059579781</ele>
        <time>2022-06-29T07:48:06.243Z</time>
      </trkpt>
      <trkpt lat="44.20658" lon="4.76708">
        <ele>132.69332458769</ele>
        <time>2022-06-29T07:48:08.155Z</time>
      </trkpt>
      <trkpt lat="44.20639" lon="4.76683">
        <ele>133.50145626861</ele>
        <time>2022-06-29T07:48:10.075Z</time>
      </trkpt>
      <trkpt lat="44.20633" lon="4.76671">
        <ele>134.3480563745</ele>
        <time>2022-06-29T07:48:11.999Z</time>
      </trkpt>
      <trkpt lat="44.20632" lon="4.76659">
        <ele>135.21701381459</ele>
        <time>2022-06-29T07:48:13.926Z</time>
      </trkpt>
      <trkpt lat="44.20635" lon="4.76646">
        <ele>136.10244599862</ele>
        <time>2022-06-29T07:48:15.856Z</time>
      </trkpt>
      <trkpt lat="44.20654" lon="4.76575">
        <ele>137.22387516303</ele>
        <time>2022-06-29T07:48:17.804Z</time>
      </trkpt>
      <trkpt lat="44.20661" lon="4.76551">
        <ele>138.15351687664</ele>
        <time>2022-06-29T07:48:19.758Z</time>
      </trkpt>
      <trkpt lat="44.20661" lon="4.76551">
        <ele>138.97972501828</ele>
        <time>2022-06-29T07:48:21.712Z</time>
      </trkpt>
      <trkpt lat="44.20671" lon="4.76436">
        <ele>140.1365311908</ele>
        <time>2022-06-29T07:48:23.694Z</time>
      </trkpt>
      <trkpt lat="44.20671" lon="4.76436">
        <ele>140.88421595927</ele>
        <time>2022-06-29T07:48:25.676Z</time>
      </trkpt>
      <trkpt lat="44.20671" lon="4.76436">
        <ele>141.57700228398</ele>
        <time>2022-06-29T07:48:27.658Z</time>
      </trkpt>
      <trkpt lat="44.20675" lon="4.76393">
        <ele>142.31955910312</ele>
        <time>2022-06-29T07:48:29.651Z</time>
      </trkpt>
      <trkpt lat="44.20692" lon="4.76337">
        <ele>143.00534023913</ele>
        <time>2022-06-29T07:48:31.658Z</time>
      </trkpt>
      <trkpt lat="44.20681" lon="4.76326">
        <ele>143.46047340232</ele>
        <time>2022-06-29T07:48:33.670Z</time>
      </trkpt>
      <trkpt lat="44.20674" lon="4.76326">
        <ele>143.86532932152</ele>
        <time>2022-06-29T07:48:35.684Z</time>
      </trkpt>
      <trkpt lat="44.20665" lon="4.76331">
        <ele>144.19291220199</ele>
        <time>2022-06-29T07:48:37.701Z</time>
      </trkpt>
      <trkpt lat="44.20652" lon="4.76325">
        <ele>144.46076516054</ele>
        <time>2022-06-29T07:48:39.723Z</time>
      </trkpt>
      <trkpt lat="44.20622" lon="4.76318">
        <ele>144.66851600045</ele>
        <time>2022-06-29T07:48:41.755Z</time>
      </trkpt>
      <trkpt lat="44.20609" lon="4.76324">
        <ele>144.74356529341</ele>
        <time>2022-06-29T07:48:43.792Z</time>
      </trkpt>
      <trkpt lat="44.20603" lon="4.76329">
        <ele>144.76496581547</ele>
        <time>2022-06-29T07:48:45.831Z</time>
      </trkpt>
      <trkpt lat="44.20594" lon="4.76333">
        <ele>144.68897873327</ele>
        <time>2022-06-29T07:48:47.873Z</time>
      </trkpt>
      <trkpt lat="44.20584" lon="4.76329">
        <ele>144.6072070819</ele>
        <time>2022-06-29T07:48:49.919Z</time>
      </trkpt>
      <trkpt lat="44.20566" lon="4.76316">
        <ele>144.44117210789</ele>
        <time>2022-06-29T07:48:51.971Z</time>
      </trkpt>
      <trkpt lat="44.20556" lon="4.76315">
        <ele>144.32470046972</ele>
        <time>2022-06-29T07:48:54.027Z</time>
      </trkpt>
      <trkpt lat="44.20534" lon="4.76317">
        <ele>144.20384040436</ele>
        <time>2022-06-29T07:48:56.090Z</time>
      </trkpt>
      <trkpt lat="44.20524" lon="4.76315">
        <ele>144.13110337378</ele>
        <time>2022-06-29T07:48:58.156Z</time>
      </trkpt>
      <trkpt lat="44.20514" lon="4.76299">
        <ele>144.07993067527</ele>
        <time>2022-06-29T07:49:00.227Z</time>
      </trkpt>
      <trkpt lat="44.20507" lon="4.76236">
        <ele>144.06763025314</ele>
        <time>2022-06-29T07:49:02.314Z</time>
      </trkpt>
      <trkpt lat="44.20506" lon="4.76184">
        <ele>144.08168524276</ele>
        <time>2022-06-29T07:49:04.413Z</time>
      </trkpt>
      <trkpt lat="44.20497" lon="4.76152">
        <ele>144.00095879778</ele>
        <time>2022-06-29T07:49:06.520Z</time>
      </trkpt>
      <trkpt lat="44.20485" lon="4.76124">
        <ele>143.95386242964</ele>
        <time>2022-06-29T07:49:08.635Z</time>
      </trkpt>
      <trkpt lat="44.20479" lon="4.7612">
        <ele>143.95235850513</ele>
        <time>2022-06-29T07:49:10.753Z</time>
      </trkpt>
      <trkpt lat="44.20469" lon="4.76122">
        <ele>143.95453445164</ele>
        <time>2022-06-29T07:49:12.874Z</time>
      </trkpt>
      <trkpt lat="44.20456" lon="4.76129">
        <ele>143.97351136967</ele>
        <time>2022-06-29T07:49:14.999Z</time>
      </trkpt>
      <trkpt lat="44.20432" lon="4.76116">
        <ele>144.00203188878</ele>
        <time>2022-06-29T07:49:17.133Z</time>
      </trkpt>
      <trkpt lat="44.20411" lon="4.7611">
        <ele>144.08140555394</ele>
        <time>2022-06-29T07:49:19.274Z</time>
      </trkpt>
      <trkpt lat="44.2039" lon="4.76093">
        <ele>144.17533296155</ele>
        <time>2022-06-29T07:49:21.423Z</time>
      </trkpt>
      <trkpt lat="44.20381" lon="4.76073">
        <ele>144.29013741019</ele>
        <time>2022-06-29T07:49:23.578Z</time>
      </trkpt>
      <trkpt lat="44.20378" lon="4.76053">
        <ele>144.35740981256</ele>
        <time>2022-06-29T07:49:25.738Z</time>
      </trkpt>
      <trkpt lat="44.20374" lon="4.76044">
        <ele>144.31716384303</ele>
        <time>2022-06-29T07:49:27.900Z</time>
      </trkpt>
      <trkpt lat="44.20374" lon="4.76004">
        <ele>144.32025690309</ele>
        <time>2022-06-29T07:49:30.072Z</time>
      </trkpt>
      <trkpt lat="44.20375" lon="4.75998">
        <ele>144.09014269449</ele>
        <time>2022-06-29T07:49:32.246Z</time>
      </trkpt>
      <trkpt lat="44.20389" lon="4.7599">
        <ele>143.75188262068</ele>
        <time>2022-06-29T07:49:34.425Z</time>
      </trkpt>
      <trkpt lat="44.20389" lon="4.75979">
        <ele>143.2853477916</ele>
        <time>2022-06-29T07:49:36.606Z</time>
      </trkpt>
      <trkpt lat="44.20385" lon="4.75967">
        <ele>142.66438795286</ele>
        <time>2022-06-29T07:49:38.791Z</time>
      </trkpt>
      <trkpt lat="44.20378" lon="4.75959">
        <ele>141.88713251831</ele>
        <time>2022-06-29T07:49:40.978Z</time>
      </trkpt>
      <trkpt lat="44.20358" lon="4.75952">
        <ele>140.90534513323</ele>
        <time>2022-06-29T07:49:43.172Z</time>
      </trkpt>
      <trkpt lat="44.20328" lon="4.75946">
        <ele>139.57554590603</ele>
        <time>2022-06-29T07:49:45.376Z</time>
      </trkpt>
      <trkpt lat="44.20318" lon="4.75941">
        <ele>138.27306462025</ele>
        <time>2022-06-29T07:49:47.584Z</time>
      </trkpt>
      <trkpt lat="44.2031" lon="4.75931">
        <ele>136.84194244554</ele>
        <time>2022-06-29T07:49:49.795Z</time>
      </trkpt>
      <trkpt lat="44.20304" lon="4.75915">
        <ele>135.27215558291</ele>
        <time>2022-06-29T07:49:52.011Z</time>
      </trkpt>
      <trkpt lat="44.20283" lon="4.759">
        <ele>133.50090941409</ele>
        <time>2022-06-29T07:49:54.235Z</time>
      </trkpt>
      <trkpt lat="44.20278" lon="4.75887">
        <ele>131.68504543885</ele>
        <time>2022-06-29T07:49:56.462Z</time>
      </trkpt>
      <trkpt lat="44.20268" lon="4.75808">
        <ele>129.54155651122</ele>
        <time>2022-06-29T07:49:58.709Z</time>
      </trkpt>
      <trkpt lat="44.20239" lon="4.75748">
        <ele>127.27257896678</ele>
        <time>2022-06-29T07:50:00.973Z</time>
      </trkpt>
      <trkpt lat="44.20196" lon="4.75697">
        <ele>124.96529830085</ele>
        <time>2022-06-29T07:50:03.256Z</time>
      </trkpt>
      <trkpt lat="44.20177" lon="4.75649">
        <ele>122.79428873645</ele>
        <time>2022-06-29T07:50:05.552Z</time>
      </trkpt>
      <trkpt lat="44.2015" lon="4.7556">
        <ele>120.04435196889</ele>
        <time>2022-06-29T07:50:07.871Z</time>
      </trkpt>
      <trkpt lat="44.2015" lon="4.7556">
        <ele>117.97717316297</ele>
        <time>2022-06-29T07:50:10.190Z</time>
      </trkpt>
      <trkpt lat="44.20139" lon="4.75525">
        <ele>115.76809654239</ele>
        <time>2022-06-29T07:50:12.518Z</time>
      </trkpt>
      <trkpt lat="44.2008" lon="4.75454">
        <ele>113.50261169042</ele>
        <time>2022-06-29T07:50:14.872Z</time>
      </trkpt>
      <trkpt lat="44.20072" lon="4.75438">
        <ele>111.56112825938</ele>
        <time>2022-06-29T07:50:17.231Z</time>
      </trkpt>
      <trkpt lat="44.20114" lon="4.75456">
        <ele>109.77842308525</ele>
        <time>2022-06-29T07:50:19.604Z</time>
      </trkpt>
      <trkpt lat="44.20115" lon="4.75438">
        <ele>108.01328418085</ele>
        <time>2022-06-29T07:50:21.982Z</time>
      </trkpt>
      <trkpt lat="44.20111" lon="4.75407">
        <ele>106.32732917152</ele>
        <time>2022-06-29T07:50:24.367Z</time>
      </trkpt>
      <trkpt lat="44.20111" lon="4.75407">
        <ele>104.79972218532</ele>
        <time>2022-06-29T07:50:26.752Z</time>
      </trkpt>
      <trkpt lat="44.20111" lon="4.75408">
        <ele>103.35717172676</ele>
        <time>2022-06-29T07:50:29.137Z</time>
      </trkpt>
      <trkpt lat="44.20115" lon="4.75438">
        <ele>108.01328418085</ele>
        <time>2022-06-29T07:50:31.530Z</time>
      </trkpt>
      <trkpt lat="44.20114" lon="4.75456">
        <ele>100.81194015873</ele>
        <time>2022-06-29T07:50:33.927Z</time>
      </trkpt>
      <trkpt lat="44.20114" lon="4.75456">
        <ele>109.77842308525</ele>
        <time>2022-06-29T07:50:36.324Z</time>
      </trkpt>
      <trkpt lat="44.20072" lon="4.75438">
        <ele>111.56112825938</ele>
        <time>2022-06-29T07:50:38.736Z</time>
      </trkpt>
      <trkpt lat="44.20041" lon="4.75405">
        <ele>96.86272149668</ele>
        <time>2022-06-29T07:50:41.161Z</time>
      </trkpt>
      <trkpt lat="44.20029" lon="4.75401">
        <ele>95.64950560789</ele>
        <time>2022-06-29T07:50:43.590Z</time>
      </trkpt>
      <trkpt lat="44.2002" lon="4.75404">
        <ele>94.48379078683</ele>
        <time>2022-06-29T07:50:46.022Z</time>
      </trkpt>
      <trkpt lat="44.19986" lon="4.75423">
        <ele>93.19800183134</ele>
        <time>2022-06-29T07:50:48.466Z</time>
      </trkpt>
      <trkpt lat="44.19978" lon="4.75423">
        <ele>92.04668505243</ele>
        <time>2022-06-29T07:50:50.913Z</time>
      </trkpt>
      <trkpt lat="44.19978" lon="4.75423">
        <ele>90.95550634224</ele>
        <time>2022-06-29T07:50:53.360Z</time>
      </trkpt>
      <trkpt lat="44.19945" lon="4.75417">
        <ele>89.71045271646</ele>
        <time>2022-06-29T07:50:55.818Z</time>
      </trkpt>
      <trkpt lat="44.19918" lon="4.75409">
        <ele>88.55862016484</ele>
        <time>2022-06-29T07:50:58.285Z</time>
      </trkpt>
      <trkpt lat="44.19909" lon="4.75401">
        <ele>87.41651023538</ele>
        <time>2022-06-29T07:51:00.755Z</time>
      </trkpt>
      <trkpt lat="44.19901" lon="4.75392">
        <ele>86.21745989735</ele>
        <time>2022-06-29T07:51:03.229Z</time>
      </trkpt>
      <trkpt lat="44.1989" lon="4.75368">
        <ele>84.95132227606</ele>
        <time>2022-06-29T07:51:05.710Z</time>
      </trkpt>
      <trkpt lat="44.19896" lon="4.75337">
        <ele>83.74053478152</ele>
        <time>2022-06-29T07:51:08.199Z</time>
      </trkpt>
      <trkpt lat="44.19905" lon="4.75227">
        <ele>82.49463071284</ele>
        <time>2022-06-29T07:51:10.714Z</time>
      </trkpt>
      <trkpt lat="44.19905" lon="4.75202">
        <ele>81.16258426243</ele>
        <time>2022-06-29T07:51:13.235Z</time>
      </trkpt>
      <trkpt lat="44.19895" lon="4.74992">
        <ele>79.66763257817</ele>
        <time>2022-06-29T07:51:15.806Z</time>
      </trkpt>
      <trkpt lat="44.1989" lon="4.74954">
        <ele>78.28917945618</ele>
        <time>2022-06-29T07:51:18.387Z</time>
      </trkpt>
      <trkpt lat="44.1988" lon="4.74915">
        <ele>76.84552466202</ele>
        <time>2022-06-29T07:51:20.978Z</time>
      </trkpt>
      <trkpt lat="44.19875" lon="4.74887">
        <ele>75.39561195983</ele>
        <time>2022-06-29T07:51:23.576Z</time>
      </trkpt>
      <trkpt lat="44.19887" lon="4.74779">
        <ele>73.52021775772</ele>
        <time>2022-06-29T07:51:26.200Z</time>
      </trkpt>
      <trkpt lat="44.19894" lon="4.74728">
        <ele>72.02562123219</ele>
        <time>2022-06-29T07:51:28.836Z</time>
      </trkpt>
      <trkpt lat="44.19897" lon="4.74688">
        <ele>70.56595630972</ele>
        <time>2022-06-29T07:51:31.482Z</time>
      </trkpt>
      <trkpt lat="44.19901" lon="4.74631">
        <ele>68.99669476842</ele>
        <time>2022-06-29T07:51:34.142Z</time>
      </trkpt>
      <trkpt lat="44.19904" lon="4.74579">
        <ele>66.27633553074</ele>
        <time>2022-06-29T07:51:36.814Z</time>
      </trkpt>
      <trkpt lat="44.19906" lon="4.74546">
        <ele>64.95004083468</ele>
        <time>2022-06-29T07:51:39.494Z</time>
      </trkpt>
      <trkpt lat="44.19908" lon="4.74526">
        <ele>63.67668097582</ele>
        <time>2022-06-29T07:51:42.179Z</time>
      </trkpt>
      <trkpt lat="44.19916" lon="4.74478">
        <ele>62.36078917386</ele>
        <time>2022-06-29T07:51:44.876Z</time>
      </trkpt>
      <trkpt lat="44.1992" lon="4.74408">
        <ele>61.11949090022</ele>
        <time>2022-06-29T07:51:47.590Z</time>
      </trkpt>
      <trkpt lat="44.19919" lon="4.74394">
        <ele>60.05443783038</ele>
        <time>2022-06-29T07:51:50.307Z</time>
      </trkpt>
      <trkpt lat="44.19911" lon="4.74355">
        <ele>59.1157013076</ele>
        <time>2022-06-29T07:51:53.034Z</time>
      </trkpt>
      <trkpt lat="44.19909" lon="4.74333">
        <ele>58.16536184006</ele>
        <time>2022-06-29T07:51:55.766Z</time>
      </trkpt>
      <trkpt lat="44.19908" lon="4.74316">
        <ele>57.21021723005</ele>
        <time>2022-06-29T07:51:58.502Z</time>
      </trkpt>
      <trkpt lat="44.19911" lon="4.74277">
        <ele>56.35472230556</ele>
        <time>2022-06-29T07:52:01.248Z</time>
      </trkpt>
      <trkpt lat="44.19911" lon="4.74277">
        <ele>55.45237689008</ele>
        <time>2022-06-29T07:52:03.994Z</time>
      </trkpt>
      <trkpt lat="44.19917" lon="4.74204">
        <ele>54.48192232588</ele>
        <time>2022-06-29T07:52:06.757Z</time>
      </trkpt>
      <trkpt lat="44.19915" lon="4.74164">
        <ele>53.54025311653</ele>
        <time>2022-06-29T07:52:09.530Z</time>
      </trkpt>
      <trkpt lat="44.19907" lon="4.74123">
        <ele>52.71248005485</ele>
        <time>2022-06-29T07:52:12.313Z</time>
      </trkpt>
      <trkpt lat="44.19892" lon="4.74069">
        <ele>51.87268381564</ele>
        <time>2022-06-29T07:52:15.110Z</time>
      </trkpt>
      <trkpt lat="44.19891" lon="4.74048">
        <ele>51.07963204269</ele>
        <time>2022-06-29T07:52:17.912Z</time>
      </trkpt>
      <trkpt lat="44.19888" lon="4.74006">
        <ele>50.20420524632</ele>
        <time>2022-06-29T07:52:20.724Z</time>
      </trkpt>
      <trkpt lat="44.19891" lon="4.73966">
        <ele>49.32925849345</ele>
        <time>2022-06-29T07:52:23.546Z</time>
      </trkpt>
      <trkpt lat="44.19901" lon="4.73823">
        <ele>48.38648308139</ele>
        <time>2022-06-29T07:52:26.402Z</time>
      </trkpt>
      <trkpt lat="44.19901" lon="4.73814">
        <ele>47.77153383288</ele>
        <time>2022-06-29T07:52:29.260Z</time>
      </trkpt>
      <trkpt lat="44.19901" lon="4.73814">
        <ele>47.23050663454</ele>
        <time>2022-06-29T07:52:32.118Z</time>
      </trkpt>
      <trkpt lat="44.19899" lon="4.73805">
        <ele>46.75810588982</ele>
        <time>2022-06-29T07:52:34.979Z</time>
      </trkpt>
      <trkpt lat="44.19902" lon="4.73794">
        <ele>46.41402043239</ele>
        <time>2022-06-29T07:52:37.842Z</time>
      </trkpt>
      <trkpt lat="44.19903" lon="4.7378">
        <ele>46.15631844338</ele>
        <time>2022-06-29T07:52:40.709Z</time>
      </trkpt>
      <trkpt lat="44.19902" lon="4.73689">
        <ele>45.99347287177</ele>
        <time>2022-06-29T07:52:43.598Z</time>
      </trkpt>
      <trkpt lat="44.19905" lon="4.73662">
        <ele>45.95959881666</ele>
        <time>2022-06-29T07:52:46.493Z</time>
      </trkpt>
      <trkpt lat="44.19909" lon="4.73646">
        <ele>46.03293756198</ele>
        <time>2022-06-29T07:52:49.392Z</time>
      </trkpt>
      <trkpt lat="44.19938" lon="4.7357">
        <ele>46.27984990761</ele>
        <time>2022-06-29T07:52:52.312Z</time>
      </trkpt>
      <trkpt lat="44.19938" lon="4.7357">
        <ele>46.6427476881</ele>
        <time>2022-06-29T07:52:55.232Z</time>
      </trkpt>
      <trkpt lat="44.19938" lon="4.7357">
        <ele>47.15341882175</ele>
        <time>2022-06-29T07:52:58.152Z</time>
      </trkpt>
      <trkpt lat="44.19941" lon="4.7356">
        <ele>47.81561803399</ele>
        <time>2022-06-29T07:53:01.074Z</time>
      </trkpt>
      <trkpt lat="44.19954" lon="4.73527">
        <ele>48.60854638152</ele>
        <time>2022-06-29T07:53:04.006Z</time>
      </trkpt>
      <trkpt lat="44.1996" lon="4.73497">
        <ele>49.5705133508</ele>
        <time>2022-06-29T07:53:06.945Z</time>
      </trkpt>
      <trkpt lat="44.19962" lon="4.73472">
        <ele>50.72231788647</ele>
        <time>2022-06-29T07:53:09.890Z</time>
      </trkpt>
      <trkpt lat="44.19964" lon="4.73464">
        <ele>52.04597214527</ele>
        <time>2022-06-29T07:53:12.837Z</time>
      </trkpt>
      <trkpt lat="44.19984" lon="4.7342">
        <ele>53.58009002982</ele>
        <time>2022-06-29T07:53:15.797Z</time>
      </trkpt>
      <trkpt lat="44.19992" lon="4.73432">
        <ele>55.2782206112</ele>
        <time>2022-06-29T07:53:18.761Z</time>
      </trkpt>
      <trkpt lat="44.20028" lon="4.73465">
        <ele>57.52365089302</ele>
        <time>2022-06-29T07:53:21.739Z</time>
      </trkpt>
      <trkpt lat="44.20053" lon="4.73462">
        <ele>59.73542556365</ele>
        <time>2022-06-29T07:53:24.725Z</time>
      </trkpt>
      <trkpt lat="44.20065" lon="4.73458">
        <ele>61.88103202432</ele>
        <time>2022-06-29T07:53:27.715Z</time>
      </trkpt>
      <trkpt lat="44.20109" lon="4.73426">
        <ele>64.28615626329</ele>
        <time>2022-06-29T07:53:30.722Z</time>
      </trkpt>
      <trkpt lat="44.20114" lon="4.73425">
        <ele>66.43323599201</ele>
        <time>2022-06-29T07:53:33.731Z</time>
      </trkpt>
      <trkpt lat="44.20127" lon="4.7343">
        <ele>68.74210802301</ele>
        <time>2022-06-29T07:53:36.744Z</time>
      </trkpt>
      <trkpt lat="44.20137" lon="4.7343">
        <ele>71.01206387121</ele>
        <time>2022-06-29T07:53:39.760Z</time>
      </trkpt>
      <trkpt lat="44.20158" lon="4.73438">
        <ele>73.40242835257</ele>
        <time>2022-06-29T07:53:42.784Z</time>
      </trkpt>
      <trkpt lat="44.20179" lon="4.73453">
        <ele>75.89080506204</ele>
        <time>2022-06-29T07:53:45.815Z</time>
      </trkpt>
      <trkpt lat="44.20214" lon="4.73472">
        <ele>78.36922449074</ele>
        <time>2022-06-29T07:53:48.859Z</time>
      </trkpt>
      <trkpt lat="44.20227" lon="4.7347">
        <ele>80.81014697277</ele>
        <time>2022-06-29T07:53:51.907Z</time>
      </trkpt>
      <trkpt lat="44.2024" lon="4.73464">
        <ele>83.25448515582</ele>
        <time>2022-06-29T07:53:54.960Z</time>
      </trkpt>
      <trkpt lat="44.20249" lon="4.73455">
        <ele>85.70971480794</ele>
        <time>2022-06-29T07:53:58.017Z</time>
      </trkpt>
      <trkpt lat="44.20249" lon="4.73455">
        <ele>88.1216319275</ele>
        <time>2022-06-29T07:54:01.074Z</time>
      </trkpt>
      <trkpt lat="44.20249" lon="4.73455">
        <ele>90.57146238202</ele>
        <time>2022-06-29T07:54:04.131Z</time>
      </trkpt>
      <trkpt lat="44.20262" lon="4.73443">
        <ele>93.2316435854</ele>
        <time>2022-06-29T07:54:07.193Z</time>
      </trkpt>
      <trkpt lat="44.20282" lon="4.73424">
        <ele>96.03620610727</ele>
        <time>2022-06-29T07:54:10.263Z</time>
      </trkpt>
      <trkpt lat="44.20288" lon="4.73421">
        <ele>98.70005425776</ele>
        <time>2022-06-29T07:54:13.335Z</time>
      </trkpt>
      <trkpt lat="44.20303" lon="4.73417">
        <ele>101.57946666348</ele>
        <time>2022-06-29T07:54:16.412Z</time>
      </trkpt>
      <trkpt lat="44.20305" lon="4.73397">
        <ele>104.28374371764</ele>
        <time>2022-06-29T07:54:19.494Z</time>
      </trkpt>
      <trkpt lat="44.2031" lon="4.73373">
        <ele>107.15858151368</ele>
        <time>2022-06-29T07:54:22.582Z</time>
      </trkpt>
      <trkpt lat="44.20331" lon="4.7335">
        <ele>110.30272286145</ele>
        <time>2022-06-29T07:54:25.679Z</time>
      </trkpt>
      <trkpt lat="44.20348" lon="4.73353">
        <ele>113.25272169373</ele>
        <time>2022-06-29T07:54:28.782Z</time>
      </trkpt>
      <trkpt lat="44.20363" lon="4.73351">
        <ele>116.20817193133</ele>
        <time>2022-06-29T07:54:31.890Z</time>
      </trkpt>
      <trkpt lat="44.20383" lon="4.73366">
        <ele>119.33119906622</ele>
        <time>2022-06-29T07:54:35.005Z</time>
      </trkpt>
      <trkpt lat="44.20397" lon="4.73381">
        <ele>122.37681953533</ele>
        <time>2022-06-29T07:54:38.126Z</time>
      </trkpt>
      <trkpt lat="44.20408" lon="4.73384">
        <ele>125.40317731907</ele>
        <time>2022-06-29T07:54:41.251Z</time>
      </trkpt>
      <trkpt lat="44.20417" lon="4.73383">
        <ele>128.47298545093</ele>
        <time>2022-06-29T07:54:44.379Z</time>
      </trkpt>
      <trkpt lat="44.20439" lon="4.73369">
        <ele>131.76029062778</ele>
        <time>2022-06-29T07:54:47.515Z</time>
      </trkpt>
      <trkpt lat="44.20459" lon="4.73362">
        <ele>135.03214977392</ele>
        <time>2022-06-29T07:54:50.658Z</time>
      </trkpt>
      <trkpt lat="44.20469" lon="4.73357">
        <ele>138.15628206105</ele>
        <time>2022-06-29T07:54:53.805Z</time>
      </trkpt>
      <trkpt lat="44.20479" lon="4.73357">
        <ele>141.28221741357</ele>
        <time>2022-06-29T07:54:56.955Z</time>
      </trkpt>
      <trkpt lat="44.20524" lon="4.73382">
        <ele>144.83862447334</ele>
        <time>2022-06-29T07:55:00.121Z</time>
      </trkpt>
      <trkpt lat="44.20532" lon="4.73382">
        <ele>147.93938188068</ele>
        <time>2022-06-29T07:55:03.289Z</time>
      </trkpt>
      <trkpt lat="44.20547" lon="4.73373">
        <ele>151.09537244467</ele>
        <time>2022-06-29T07:55:06.463Z</time>
      </trkpt>
      <trkpt lat="44.20555" lon="4.73374">
        <ele>154.1348786718</ele>
        <time>2022-06-29T07:55:09.640Z</time>
      </trkpt>
      <trkpt lat="44.20569" lon="4.73391">
        <ele>157.19730341854</ele>
        <time>2022-06-29T07:55:12.823Z</time>
      </trkpt>
      <trkpt lat="44.20592" lon="4.734">
        <ele>160.19113501376</ele>
        <time>2022-06-29T07:55:16.014Z</time>
      </trkpt>
      <trkpt lat="44.20598" lon="4.73401">
        <ele>162.99284730301</ele>
        <time>2022-06-29T07:55:19.207Z</time>
      </trkpt>
      <trkpt lat="44.20617" lon="4.73399">
        <ele>165.82779857776</ele>
        <time>2022-06-29T07:55:22.406Z</time>
      </trkpt>
      <trkpt lat="44.20628" lon="4.73401">
        <ele>168.52308266154</ele>
        <time>2022-06-29T07:55:25.609Z</time>
      </trkpt>
      <trkpt lat="44.20653" lon="4.73397">
        <ele>171.26912685944</ele>
        <time>2022-06-29T07:55:28.820Z</time>
      </trkpt>
      <trkpt lat="44.20663" lon="4.73398">
        <ele>173.73405445785</ele>
        <time>2022-06-29T07:55:32.035Z</time>
      </trkpt>
      <trkpt lat="44.2067" lon="4.73402">
        <ele>176.00914627374</ele>
        <time>2022-06-29T07:55:35.252Z</time>
      </trkpt>
      <trkpt lat="44.20678" lon="4.73403">
        <ele>178.14530318259</ele>
        <time>2022-06-29T07:55:38.472Z</time>
      </trkpt>
      <trkpt lat="44.20722" lon="4.73383">
        <ele>180.37902212069</ele>
        <time>2022-06-29T07:55:41.707Z</time>
      </trkpt>
      <trkpt lat="44.2073" lon="4.73384">
        <ele>182.1495697868</ele>
        <time>2022-06-29T07:55:44.945Z</time>
      </trkpt>
      <trkpt lat="44.20735" lon="4.73387">
        <ele>183.67759217035</ele>
        <time>2022-06-29T07:55:48.185Z</time>
      </trkpt>
      <trkpt lat="44.2074" lon="4.73394">
        <ele>184.97485725089</ele>
        <time>2022-06-29T07:55:51.427Z</time>
      </trkpt>
      <trkpt lat="44.2074" lon="4.73394">
        <ele>185.96743702006</ele>
        <time>2022-06-29T07:55:54.669Z</time>
      </trkpt>
      <trkpt lat="44.2074" lon="4.73394">
        <ele>186.69892780696</ele>
        <time>2022-06-29T07:55:57.911Z</time>
      </trkpt>
      <trkpt lat="44.2074" lon="4.73394">
        <ele>187.15773011564</ele>
        <time>2022-06-29T07:56:01.153Z</time>
      </trkpt>
      <trkpt lat="44.20741" lon="4.73395">
        <ele>187.33200014135</ele>
        <time>2022-06-29T07:56:04.395Z</time>
      </trkpt>
      <trkpt lat="44.20748" lon="4.73412">
        <ele>187.2866581125</ele>
        <time>2022-06-29T07:56:07.642Z</time>
      </trkpt>
      <trkpt lat="44.20756" lon="4.73439">
        <ele>186.929573925</ele>
        <time>2022-06-29T07:56:10.896Z</time>
      </trkpt>
      <trkpt lat="44.20759" lon="4.73446">
        <ele>186.20171750019</ele>
        <time>2022-06-29T07:56:14.152Z</time>
      </trkpt>
      <trkpt lat="44.20764" lon="4.73436">
        <ele>185.16674940397</ele>
        <time>2022-06-29T07:56:17.411Z</time>
      </trkpt>
      <trkpt lat="44.20772" lon="4.7341">
        <ele>183.85338448041</ele>
        <time>2022-06-29T07:56:20.677Z</time>
      </trkpt>
      <trkpt lat="44.20806" lon="4.73333">
        <ele>182.15389832666</ele>
        <time>2022-06-29T07:56:23.965Z</time>
      </trkpt>
      <trkpt lat="44.20818" lon="4.73292">
        <ele>179.96031824646</ele>
        <time>2022-06-29T07:56:27.263Z</time>
      </trkpt>
      <trkpt lat="44.20803" lon="4.73268">
        <ele>177.40432691126</ele>
        <time>2022-06-29T07:56:30.569Z</time>
      </trkpt>
      <trkpt lat="44.20796" lon="4.73263">
        <ele>174.60265703126</ele>
        <time>2022-06-29T07:56:33.878Z</time>
      </trkpt>
      <trkpt lat="44.20796" lon="4.73263">
        <ele>171.56806812149</ele>
        <time>2022-06-29T07:56:37.187Z</time>
      </trkpt>
      <trkpt lat="44.20796" lon="4.73263">
        <ele>168.2698218472</ele>
        <time>2022-06-29T07:56:40.496Z</time>
      </trkpt>
      <trkpt lat="44.2075" lon="4.73231">
        <ele>163.98474310071</ele>
        <time>2022-06-29T07:56:43.822Z</time>
      </trkpt>
      <trkpt lat="44.20744" lon="4.73225">
        <ele>160.16388056343</ele>
        <time>2022-06-29T07:56:47.150Z</time>
      </trkpt>
      <trkpt lat="44.20739" lon="4.73217">
        <ele>156.24478933626</ele>
        <time>2022-06-29T07:56:50.481Z</time>
      </trkpt>
      <trkpt lat="44.20727" lon="4.73214">
        <ele>152.1345510247</ele>
        <time>2022-06-29T07:56:53.816Z</time>
      </trkpt>
      <trkpt lat="44.2068" lon="4.7318">
        <ele>147.31119242877</ele>
        <time>2022-06-29T07:56:57.168Z</time>
      </trkpt>
      <trkpt lat="44.20631" lon="4.73165">
        <ele>142.49087386033</ele>
        <time>2022-06-29T07:57:00.537Z</time>
      </trkpt>
      <trkpt lat="44.20602" lon="4.73144">
        <ele>138.56715546673</ele>
        <time>2022-06-29T07:57:03.917Z</time>
      </trkpt>
      <trkpt lat="44.20588" lon="4.73133">
        <ele>134.77902616877</ele>
        <time>2022-06-29T07:57:07.302Z</time>
      </trkpt>
      <trkpt lat="44.2058" lon="4.73122">
        <ele>131.28607964238</ele>
        <time>2022-06-29T07:57:10.691Z</time>
      </trkpt>
      <trkpt lat="44.20565" lon="4.73098">
        <ele>128.01973178084</ele>
        <time>2022-06-29T07:57:14.088Z</time>
      </trkpt>
      <trkpt lat="44.20555" lon="4.7309">
        <ele>125.07306205638</ele>
        <time>2022-06-29T07:57:17.488Z</time>
      </trkpt>
      <trkpt lat="44.20552" lon="4.73082">
        <ele>122.54044913728</ele>
        <time>2022-06-29T07:57:20.891Z</time>
      </trkpt>
      <trkpt lat="44.20543" lon="4.73071">
        <ele>120.27036189689</ele>
        <time>2022-06-29T07:57:24.298Z</time>
      </trkpt>
      <trkpt lat="44.20529" lon="4.73064">
        <ele>118.29719040854</ele>
        <time>2022-06-29T07:57:27.710Z</time>
      </trkpt>
      <trkpt lat="44.20515" lon="4.7305">
        <ele>116.69817185422</ele>
        <time>2022-06-29T07:57:31.127Z</time>
      </trkpt>
      <trkpt lat="44.20544" lon="4.73026">
        <ele>115.84976451014</ele>
        <time>2022-06-29T07:57:34.556Z</time>
      </trkpt>
      <trkpt lat="44.20565" lon="4.73">
        <ele>115.42973824567</ele>
        <time>2022-06-29T07:57:37.994Z</time>
      </trkpt>
      <trkpt lat="44.20565" lon="4.73">
        <ele>114.8751231864</ele>
        <time>2022-06-29T07:57:41.432Z</time>
      </trkpt>
      <trkpt lat="44.20565" lon="4.73">
        <ele>114.5938847282</ele>
        <time>2022-06-29T07:57:44.870Z</time>
      </trkpt>
      <trkpt lat="44.20566" lon="4.72999">
        <ele>114.58719887807</ele>
        <time>2022-06-29T07:57:48.308Z</time>
      </trkpt>
      <trkpt lat="44.20573" lon="4.72996">
        <ele>114.89934629389</ele>
        <time>2022-06-29T07:57:51.749Z</time>
      </trkpt>
      <trkpt lat="44.20586" lon="4.72997">
        <ele>115.50608425906</ele>
        <time>2022-06-29T07:57:55.194Z</time>
      </trkpt>
      <trkpt lat="44.20591" lon="4.72993">
        <ele>116.16450624438</ele>
        <time>2022-06-29T07:57:58.641Z</time>
      </trkpt>
      <trkpt lat="44.206" lon="4.72979">
        <ele>117.06698292266</ele>
        <time>2022-06-29T07:58:02.093Z</time>
      </trkpt>
      <trkpt lat="44.20609" lon="4.72976">
        <ele>117.97812085814</ele>
        <time>2022-06-29T07:58:05.547Z</time>
      </trkpt>
      <trkpt lat="44.20617" lon="4.72985">
        <ele>119.04401426633</ele>
        <time>2022-06-29T07:58:09.005Z</time>
      </trkpt>
      <trkpt lat="44.20621" lon="4.72984">
        <ele>120.12322487834</ele>
        <time>2022-06-29T07:58:12.464Z</time>
      </trkpt>
      <trkpt lat="44.20622" lon="4.72981">
        <ele>121.27723729419</ele>
        <time>2022-06-29T07:58:15.924Z</time>
      </trkpt>
      <trkpt lat="44.20613" lon="4.72957">
        <ele>122.4735543861</ele>
        <time>2022-06-29T07:58:19.390Z</time>
      </trkpt>
      <trkpt lat="44.20601" lon="4.72939">
        <ele>123.79087154605</ele>
        <time>2022-06-29T07:58:22.862Z</time>
      </trkpt>
      <trkpt lat="44.20618" lon="4.72924">
        <ele>124.76235052805</ele>
        <time>2022-06-29T07:58:26.341Z</time>
      </trkpt>
      <trkpt lat="44.20622" lon="4.72924">
        <ele>126.3076715381</ele>
        <time>2022-06-29T07:58:29.821Z</time>
      </trkpt>
      <trkpt lat="44.20628" lon="4.72939">
        <ele>128.26485998687</ele>
        <time>2022-06-29T07:58:33.305Z</time>
      </trkpt>
      <trkpt lat="44.20635" lon="4.72949">
        <ele>130.28345569623</ele>
        <time>2022-06-29T07:58:36.792Z</time>
      </trkpt>
      <trkpt lat="44.20641" lon="4.72951">
        <ele>132.28541240927</ele>
        <time>2022-06-29T07:58:40.282Z</time>
      </trkpt>
      <trkpt lat="44.20646" lon="4.7297">
        <ele>134.61831968784</ele>
        <time>2022-06-29T07:58:43.777Z</time>
      </trkpt>
      <trkpt lat="44.20668" lon="4.72979">
        <ele>137.05275702092</ele>
        <time>2022-06-29T07:58:47.279Z</time>
      </trkpt>
      <trkpt lat="44.2067" lon="4.72985">
        <ele>139.52308995596</ele>
        <time>2022-06-29T07:58:50.783Z</time>
      </trkpt>
      <trkpt lat="44.20688" lon="4.72998">
        <ele>142.46554832196</ele>
        <time>2022-06-29T07:58:54.293Z</time>
      </trkpt>
      <trkpt lat="44.20709" lon="4.72999">
        <ele>144.60133292984</ele>
        <time>2022-06-29T07:58:57.810Z</time>
      </trkpt>
      <trkpt lat="44.2072" lon="4.73008">
        <ele>147.08636201773</ele>
        <time>2022-06-29T07:59:01.332Z</time>
      </trkpt>
      <trkpt lat="44.20731" lon="4.73029">
        <ele>150.07417407746</ele>
        <time>2022-06-29T07:59:04.860Z</time>
      </trkpt>
      <trkpt lat="44.20733" lon="4.73037">
        <ele>152.72021065103</ele>
        <time>2022-06-29T07:59:08.390Z</time>
      </trkpt>
      <trkpt lat="44.20733" lon="4.73037">
        <ele>155.13443665925</ele>
        <time>2022-06-29T07:59:11.920Z</time>
      </trkpt>
      <trkpt lat="44.20733" lon="4.73037">
        <ele>157.49997193343</ele>
        <time>2022-06-29T07:59:15.450Z</time>
      </trkpt>
      <trkpt lat="44.20734" lon="4.73043">
        <ele>159.95734955895</ele>
        <time>2022-06-29T07:59:18.981Z</time>
      </trkpt>
      <trkpt lat="44.20744" lon="4.73053">
        <ele>162.47138709687</ele>
        <time>2022-06-29T07:59:22.516Z</time>
      </trkpt>
      <trkpt lat="44.20761" lon="4.73083">
        <ele>167.12334990517</ele>
        <time>2022-06-29T07:59:26.061Z</time>
      </trkpt>
      <trkpt lat="44.20759" lon="4.73104">
        <ele>168.95940018656</ele>
        <time>2022-06-29T07:59:29.611Z</time>
      </trkpt>
      <trkpt lat="44.20765" lon="4.73121">
        <ele>170.65775881029</ele>
        <time>2022-06-29T07:59:33.166Z</time>
      </trkpt>
      <trkpt lat="44.20802" lon="4.73132">
        <ele>172.3861176857</ele>
        <time>2022-06-29T07:59:36.733Z</time>
      </trkpt>
      <trkpt lat="44.20814" lon="4.73147">
        <ele>173.80905567381</ele>
        <time>2022-06-29T07:59:40.305Z</time>
      </trkpt>
      <trkpt lat="44.20832" lon="4.73143">
        <ele>174.74729817804</ele>
        <time>2022-06-29T07:59:43.883Z</time>
      </trkpt>
      <trkpt lat="44.20839" lon="4.73148">
        <ele>175.57998468371</ele>
        <time>2022-06-29T07:59:47.464Z</time>
      </trkpt>
      <trkpt lat="44.20846" lon="4.7316">
        <ele>176.30714733353</ele>
        <time>2022-06-29T07:59:51.049Z</time>
      </trkpt>
      <trkpt lat="44.2086" lon="4.73176">
        <ele>176.72214289106</ele>
        <time>2022-06-29T07:59:54.640Z</time>
      </trkpt>
      <trkpt lat="44.20873" lon="4.73194">
        <ele>177.01754308468</ele>
        <time>2022-06-29T07:59:58.237Z</time>
      </trkpt>
      <trkpt lat="44.2088" lon="4.73208">
        <ele>177.17544207681</ele>
        <time>2022-06-29T08:00:01.838Z</time>
      </trkpt>
      <trkpt lat="44.20879" lon="4.73228">
        <ele>177.34561306331</ele>
        <time>2022-06-29T08:00:05.444Z</time>
      </trkpt>
      <trkpt lat="44.20879" lon="4.73228">
        <ele>177.48999275453</ele>
        <time>2022-06-29T08:00:09.050Z</time>
      </trkpt>
      <trkpt lat="44.20879" lon="4.73228">
        <ele>177.57433374814</ele>
        <time>2022-06-29T08:00:12.656Z</time>
      </trkpt>
      <trkpt lat="44.20878" lon="4.73238">
        <ele>177.54591183919</ele>
        <time>2022-06-29T08:00:16.264Z</time>
      </trkpt>
      <trkpt lat="44.20873" lon="4.73259">
        <ele>177.54651462699</ele>
        <time>2022-06-29T08:00:19.878Z</time>
      </trkpt>
      <trkpt lat="44.20868" lon="4.73264">
        <ele>177.64306306208</ele>
        <time>2022-06-29T08:00:23.494Z</time>
      </trkpt>
      <trkpt lat="44.20862" lon="4.73274">
        <ele>177.7751494654</ele>
        <time>2022-06-29T08:00:27.113Z</time>
      </trkpt>
      <trkpt lat="44.20859" lon="4.73287">
        <ele>177.8018098161</ele>
        <time>2022-06-29T08:00:30.735Z</time>
      </trkpt>
      <trkpt lat="44.20858" lon="4.73305">
        <ele>177.81281973536</ele>
        <time>2022-06-29T08:00:34.361Z</time>
      </trkpt>
      <trkpt lat="44.20858" lon="4.73333">
        <ele>177.91560144013</ele>
        <time>2022-06-29T08:00:37.994Z</time>
      </trkpt>
      <trkpt lat="44.20871" lon="4.73367">
        <ele>177.8230801104</ele>
        <time>2022-06-29T08:00:41.636Z</time>
      </trkpt>
      <trkpt lat="44.20876" lon="4.73371">
        <ele>177.66600615221</ele>
        <time>2022-06-29T08:00:45.280Z</time>
      </trkpt>
      <trkpt lat="44.20879" lon="4.73378">
        <ele>177.57253517769</ele>
        <time>2022-06-29T08:00:48.926Z</time>
      </trkpt>
      <trkpt lat="44.20883" lon="4.73394">
        <ele>177.5381377489</ele>
        <time>2022-06-29T08:00:52.576Z</time>
      </trkpt>
      <trkpt lat="44.20896" lon="4.73416">
        <ele>177.29712253111</ele>
        <time>2022-06-29T08:00:56.233Z</time>
      </trkpt>
      <trkpt lat="44.20904" lon="4.73425">
        <ele>177.06486660853</ele>
        <time>2022-06-29T08:00:59.894Z</time>
      </trkpt>
      <trkpt lat="44.20906" lon="4.73442">
        <ele>177.02599269067</ele>
        <time>2022-06-29T08:01:03.559Z</time>
      </trkpt>
      <trkpt lat="44.20911" lon="4.73454">
        <ele>176.86661951707</ele>
        <time>2022-06-29T08:01:07.227Z</time>
      </trkpt>
      <trkpt lat="44.20919" lon="4.73483">
        <ele>176.69829960075</ele>
        <time>2022-06-29T08:01:10.902Z</time>
      </trkpt>
      <trkpt lat="44.20918" lon="4.7349">
        <ele>176.65996344647</ele>
        <time>2022-06-29T08:01:14.579Z</time>
      </trkpt>
      <trkpt lat="44.20915" lon="4.73499">
        <ele>176.6876984375</ele>
        <time>2022-06-29T08:01:18.259Z</time>
      </trkpt>
      <trkpt lat="44.20902" lon="4.73518">
        <ele>176.85871807781</ele>
        <time>2022-06-29T08:01:21.945Z</time>
      </trkpt>
      <trkpt lat="44.20895" lon="4.7352">
        <ele>176.88103180098</ele>
        <time>2022-06-29T08:01:25.633Z</time>
      </trkpt>
      <trkpt lat="44.20893" lon="4.73524">
        <ele>176.83403030761</ele>
        <time>2022-06-29T08:01:29.322Z</time>
      </trkpt>
      <trkpt lat="44.20891" lon="4.73553">
        <ele>176.60852092928</ele>
        <time>2022-06-29T08:01:33.018Z</time>
      </trkpt>
      <trkpt lat="44.20886" lon="4.73579">
        <ele>176.41604367177</ele>
        <time>2022-06-29T08:01:36.721Z</time>
      </trkpt>
      <trkpt lat="44.20882" lon="4.73588">
        <ele>176.30762109339</ele>
        <time>2022-06-29T08:01:40.426Z</time>
      </trkpt>
      <trkpt lat="44.20883" lon="4.73619">
        <ele>176.00326908959</ele>
        <time>2022-06-29T08:01:44.139Z</time>
      </trkpt>
      <trkpt lat="44.20879" lon="4.73631">
        <ele>175.92330030684</ele>
        <time>2022-06-29T08:01:47.855Z</time>
      </trkpt>
      <trkpt lat="44.2088" lon="4.73664">
        <ele>175.70673973191</ele>
        <time>2022-06-29T08:01:51.579Z</time>
      </trkpt>
      <trkpt lat="44.20883" lon="4.73675">
        <ele>175.48406578205</ele>
        <time>2022-06-29T08:01:55.306Z</time>
      </trkpt>
      <trkpt lat="44.20883" lon="4.73692">
        <ele>175.28009901689</ele>
        <time>2022-06-29T08:01:59.037Z</time>
      </trkpt>
      <trkpt lat="44.20887" lon="4.73704">
        <ele>175.00387577893</ele>
        <time>2022-06-29T08:02:02.771Z</time>
      </trkpt>
      <trkpt lat="44.20887" lon="4.73715">
        <ele>174.78560879972</ele>
        <time>2022-06-29T08:02:06.507Z</time>
      </trkpt>
      <trkpt lat="44.20883" lon="4.73731">
        <ele>174.59612316537</ele>
        <time>2022-06-29T08:02:10.247Z</time>
      </trkpt>
      <trkpt lat="44.20883" lon="4.73731">
        <ele>174.2975114761</ele>
        <time>2022-06-29T08:02:13.987Z</time>
      </trkpt>
      <trkpt lat="44.20883" lon="4.73732">
        <ele>173.94338612305</ele>
        <time>2022-06-29T08:02:17.727Z</time>
      </trkpt>
      <trkpt lat="44.2088" lon="4.73749">
        <ele>173.58026887138</ele>
        <time>2022-06-29T08:02:21.472Z</time>
      </trkpt>
      <trkpt lat="44.20878" lon="4.73783">
        <ele>173.10093779965</ele>
        <time>2022-06-29T08:02:25.225Z</time>
      </trkpt>
      <trkpt lat="44.20879" lon="4.73807">
        <ele>172.34661798789</ele>
        <time>2022-06-29T08:02:28.984Z</time>
      </trkpt>
      <trkpt lat="44.2088" lon="4.73828">
        <ele>171.57809735268</ele>
        <time>2022-06-29T08:02:32.748Z</time>
      </trkpt>
      <trkpt lat="44.2089" lon="4.7385">
        <ele>170.56525138113</ele>
        <time>2022-06-29T08:02:36.518Z</time>
      </trkpt>
      <trkpt lat="44.20892" lon="4.73862">
        <ele>169.61183534832</ele>
        <time>2022-06-29T08:02:40.291Z</time>
      </trkpt>
      <trkpt lat="44.20892" lon="4.73862">
        <ele>168.57896948374</ele>
        <time>2022-06-29T08:02:44.064Z</time>
      </trkpt>
      <trkpt lat="44.20895" lon="4.73865">
        <ele>167.34765136813</ele>
        <time>2022-06-29T08:02:47.838Z</time>
      </trkpt>
      <trkpt lat="44.20895" lon="4.73873">
        <ele>166.05039397645</ele>
        <time>2022-06-29T08:02:51.614Z</time>
      </trkpt>
      <trkpt lat="44.20913" lon="4.73914">
        <ele>164.32261433873</ele>
        <time>2022-06-29T08:02:55.402Z</time>
      </trkpt>
      <trkpt lat="44.20917" lon="4.73933">
        <ele>162.67331939004</ele>
        <time>2022-06-29T08:02:59.194Z</time>
      </trkpt>
      <trkpt lat="44.20917" lon="4.73943">
        <ele>160.92828151051</ele>
        <time>2022-06-29T08:03:02.989Z</time>
      </trkpt>
      <trkpt lat="44.20908" lon="4.73975">
        <ele>159.13107038499</ele>
        <time>2022-06-29T08:03:06.792Z</time>
      </trkpt>
      <trkpt lat="44.20898" lon="4.74002">
        <ele>157.01482507694</ele>
        <time>2022-06-29T08:03:10.602Z</time>
      </trkpt>
      <trkpt lat="44.20903" lon="4.74015">
        <ele>154.54517639599</ele>
        <time>2022-06-29T08:03:14.416Z</time>
      </trkpt>
      <trkpt lat="44.20907" lon="4.74021">
        <ele>151.91399220438</ele>
        <time>2022-06-29T08:03:18.232Z</time>
      </trkpt>
      <trkpt lat="44.20909" lon="4.74023">
        <ele>149.16125731042</ele>
        <time>2022-06-29T08:03:22.049Z</time>
      </trkpt>
      <trkpt lat="44.20909" lon="4.74023">
        <ele>146.29923417603</ele>
        <time>2022-06-29T08:03:25.866Z</time>
      </trkpt>
      <trkpt lat="44.20909" lon="4.74023">
        <ele>143.28461333946</ele>
        <time>2022-06-29T08:03:29.683Z</time>
      </trkpt>
      <trkpt lat="44.2094" lon="4.74043">
        <ele>139.276361055</ele>
        <time>2022-06-29T08:03:33.511Z</time>
      </trkpt>
      <trkpt lat="44.20963" lon="4.74049">
        <ele>135.73749200676</ele>
        <time>2022-06-29T08:03:37.347Z</time>
      </trkpt>
      <trkpt lat="44.20992" lon="4.74068">
        <ele>132.05012403203</ele>
        <time>2022-06-29T08:03:41.193Z</time>
      </trkpt>
      <trkpt lat="44.21009" lon="4.74069">
        <ele>128.45085102404</ele>
        <time>2022-06-29T08:03:45.045Z</time>
      </trkpt>
      <trkpt lat="44.21033" lon="4.74068">
        <ele>124.83370962661</ele>
        <time>2022-06-29T08:03:48.905Z</time>
      </trkpt>
      <trkpt lat="44.21033" lon="4.74068">
        <ele>121.64902360852</ele>
        <time>2022-06-29T08:03:52.765Z</time>
      </trkpt>
      <trkpt lat="44.21052" lon="4.74063">
        <ele>118.28290443914</ele>
        <time>2022-06-29T08:03:56.631Z</time>
      </trkpt>
      <trkpt lat="44.21064" lon="4.74063">
        <ele>115.23680461785</ele>
        <time>2022-06-29T08:04:00.501Z</time>
      </trkpt>
      <trkpt lat="44.2107" lon="4.7406">
        <ele>112.3801426386</ele>
        <time>2022-06-29T08:04:04.374Z</time>
      </trkpt>
      <trkpt lat="44.21095" lon="4.74054">
        <ele>109.56165604926</ele>
        <time>2022-06-29T08:04:08.255Z</time>
      </trkpt>
      <trkpt lat="44.21111" lon="4.74054">
        <ele>106.9970628793</ele>
        <time>2022-06-29T08:04:12.141Z</time>
      </trkpt>
      <trkpt lat="44.21119" lon="4.74056">
        <ele>104.69232334635</ele>
        <time>2022-06-29T08:04:16.030Z</time>
      </trkpt>
      <trkpt lat="44.21129" lon="4.74053">
        <ele>102.60479462403</ele>
        <time>2022-06-29T08:04:19.923Z</time>
      </trkpt>
      <trkpt lat="44.21146" lon="4.74053">
        <ele>100.77298103181</ele>
        <time>2022-06-29T08:04:23.821Z</time>
      </trkpt>
      <trkpt lat="44.21146" lon="4.74034">
        <ele>99.2005568078</ele>
        <time>2022-06-29T08:04:27.724Z</time>
      </trkpt>
      <trkpt lat="44.21178" lon="4.74077">
        <ele>97.83819823542</ele>
        <time>2022-06-29T08:04:31.641Z</time>
      </trkpt>
      <trkpt lat="44.21184" lon="4.74087">
        <ele>96.79791859543</ele>
        <time>2022-06-29T08:04:35.561Z</time>
      </trkpt>
      <trkpt lat="44.21262" lon="4.74085">
        <ele>95.6403765346</ele>
        <time>2022-06-29T08:04:39.508Z</time>
      </trkpt>
      <trkpt lat="44.21272" lon="4.74083">
        <ele>95.14748772326</ele>
        <time>2022-06-29T08:04:43.458Z</time>
      </trkpt>
      <trkpt lat="44.21272" lon="4.74083">
        <ele>94.96433154501</ele>
        <time>2022-06-29T08:04:47.408Z</time>
      </trkpt>
      <trkpt lat="44.21273" lon="4.74083">
        <ele>95.05952371986</ele>
        <time>2022-06-29T08:04:51.358Z</time>
      </trkpt>
      <trkpt lat="44.21285" lon="4.7408">
        <ele>95.4529559579</ele>
        <time>2022-06-29T08:04:55.312Z</time>
      </trkpt>
      <trkpt lat="44.21287" lon="4.74098">
        <ele>96.08485722992</ele>
        <time>2022-06-29T08:04:59.270Z</time>
      </trkpt>
      <trkpt lat="44.21317" lon="4.74116">
        <ele>97.06950904006</ele>
        <time>2022-06-29T08:05:03.239Z</time>
      </trkpt>
      <trkpt lat="44.21329" lon="4.7412">
        <ele>98.23320648959</ele>
        <time>2022-06-29T08:05:07.212Z</time>
      </trkpt>
      <trkpt lat="44.21388" lon="4.74138">
        <ele>99.92589588748</ele>
        <time>2022-06-29T08:05:11.205Z</time>
      </trkpt>
      <trkpt lat="44.21407" lon="4.74141">
        <ele>101.51291844728</ele>
        <time>2022-06-29T08:05:15.205Z</time>
      </trkpt>
      <trkpt lat="44.21407" lon="4.74141">
        <ele>103.16422293656</ele>
        <time>2022-06-29T08:05:19.205Z</time>
      </trkpt>
      <trkpt lat="44.21432" lon="4.74149">
        <ele>105.00307575891</ele>
        <time>2022-06-29T08:05:23.213Z</time>
      </trkpt>
      <trkpt lat="44.21502" lon="4.74135">
        <ele>107.29375270176</ele>
        <time>2022-06-29T08:05:27.245Z</time>
      </trkpt>
      <trkpt lat="44.21526" lon="4.74135">
        <ele>109.39613775069</ele>
        <time>2022-06-29T08:05:31.285Z</time>
      </trkpt>
      <trkpt lat="44.21536" lon="4.74136">
        <ele>111.50194414265</ele>
        <time>2022-06-29T08:05:35.328Z</time>
      </trkpt>
      <trkpt lat="44.21564" lon="4.74151">
        <ele>113.7031311961</ele>
        <time>2022-06-29T08:05:39.381Z</time>
      </trkpt>
      <trkpt lat="44.21633" lon="4.7416">
        <ele>116.03499569223</ele>
        <time>2022-06-29T08:05:43.458Z</time>
      </trkpt>
      <trkpt lat="44.21633" lon="4.7416">
        <ele>118.13909905579</ele>
        <time>2022-06-29T08:05:47.535Z</time>
      </trkpt>
      <trkpt lat="44.21633" lon="4.7416">
        <ele>120.23103843231</ele>
        <time>2022-06-29T08:05:51.612Z</time>
      </trkpt>
      <trkpt lat="44.21637" lon="4.74161">
        <ele>122.31281935949</ele>
        <time>2022-06-29T08:05:55.690Z</time>
      </trkpt>
      <trkpt lat="44.21697" lon="4.74161">
        <ele>124.55895871763</ele>
        <time>2022-06-29T08:05:59.788Z</time>
      </trkpt>
      <trkpt lat="44.21706" lon="4.74159">
        <ele>126.56397658952</ele>
        <time>2022-06-29T08:06:03.889Z</time>
      </trkpt>
      <trkpt lat="44.21745" lon="4.74145">
        <ele>128.74331441994</ele>
        <time>2022-06-29T08:06:08.003Z</time>
      </trkpt>
      <trkpt lat="44.21763" lon="4.7415">
        <ele>130.77456211044</ele>
        <time>2022-06-29T08:06:12.124Z</time>
      </trkpt>
      <trkpt lat="44.21774" lon="4.74151">
        <ele>132.66323469672</ele>
        <time>2022-06-29T08:06:16.248Z</time>
      </trkpt>
      <trkpt lat="44.21806" lon="4.74144">
        <ele>134.53064156822</ele>
        <time>2022-06-29T08:06:20.383Z</time>
      </trkpt>
      <trkpt lat="44.21817" lon="4.74145">
        <ele>136.22905079927</ele>
        <time>2022-06-29T08:06:24.522Z</time>
      </trkpt>
      <trkpt lat="44.21834" lon="4.7415">
        <ele>137.9312893875</ele>
        <time>2022-06-29T08:06:28.666Z</time>
      </trkpt>
      <trkpt lat="44.2184" lon="4.74149">
        <ele>139.49390953107</ele>
        <time>2022-06-29T08:06:32.813Z</time>
      </trkpt>
      <trkpt lat="44.21846" lon="4.74133">
        <ele>140.98661790968</ele>
        <time>2022-06-29T08:06:36.964Z</time>
      </trkpt>
      <trkpt lat="44.21848" lon="4.74113">
        <ele>142.43810494664</ele>
        <time>2022-06-29T08:06:41.120Z</time>
      </trkpt>
      <trkpt lat="44.21846" lon="4.74105">
        <ele>143.77313448635</ele>
        <time>2022-06-29T08:06:45.278Z</time>
      </trkpt>
      <trkpt lat="44.2184" lon="4.74097">
        <ele>145.02916681234</ele>
        <time>2022-06-29T08:06:49.438Z</time>
      </trkpt>
      <trkpt lat="44.21838" lon="4.74089">
        <ele>146.29596942002</ele>
        <time>2022-06-29T08:06:53.600Z</time>
      </trkpt>
      <trkpt lat="44.21837" lon="4.74079">
        <ele>147.58622389882</ele>
        <time>2022-06-29T08:06:57.765Z</time>
      </trkpt>
      <trkpt lat="44.21843" lon="4.74069">
        <ele>148.93449570496</ele>
        <time>2022-06-29T08:07:01.933Z</time>
      </trkpt>
      <trkpt lat="44.21848" lon="4.74069">
        <ele>150.21697379062</ele>
        <time>2022-06-29T08:07:06.103Z</time>
      </trkpt>
      <trkpt lat="44.2186" lon="4.74076">
        <ele>151.53826035569</ele>
        <time>2022-06-29T08:07:10.277Z</time>
      </trkpt>
      <trkpt lat="44.21918" lon="4.74082">
        <ele>153.36401465222</ele>
        <time>2022-06-29T08:07:14.470Z</time>
      </trkpt>
      <trkpt lat="44.21948" lon="4.74094">
        <ele>154.8419152987</ele>
        <time>2022-06-29T08:07:18.674Z</time>
      </trkpt>
      <trkpt lat="44.21953" lon="4.74099">
        <ele>156.10764966854</ele>
        <time>2022-06-29T08:07:22.880Z</time>
      </trkpt>
      <trkpt lat="44.21955" lon="4.74104">
        <ele>157.33169957149</ele>
        <time>2022-06-29T08:07:27.087Z</time>
      </trkpt>
      <trkpt lat="44.21954" lon="4.74113">
        <ele>158.53385135137</ele>
        <time>2022-06-29T08:07:31.296Z</time>
      </trkpt>
      <trkpt lat="44.21952" lon="4.74121">
        <ele>159.78029521775</ele>
        <time>2022-06-29T08:07:35.508Z</time>
      </trkpt>
      <trkpt lat="44.21946" lon="4.74131">
        <ele>161.05178544797</ele>
        <time>2022-06-29T08:07:39.723Z</time>
      </trkpt>
      <trkpt lat="44.21927" lon="4.74149">
        <ele>162.33424595028</ele>
        <time>2022-06-29T08:07:43.945Z</time>
      </trkpt>
      <trkpt lat="44.21925" lon="4.74162">
        <ele>163.77907550158</ele>
        <time>2022-06-29T08:07:48.170Z</time>
      </trkpt>
      <trkpt lat="44.21927" lon="4.74165">
        <ele>165.35818277818</ele>
        <time>2022-06-29T08:07:52.396Z</time>
      </trkpt>
      <trkpt lat="44.21937" lon="4.74171">
        <ele>167.10296037204</ele>
        <time>2022-06-29T08:07:56.626Z</time>
      </trkpt>
      <trkpt lat="44.21951" lon="4.74176">
        <ele>168.890049683</ele>
        <time>2022-06-29T08:08:00.861Z</time>
      </trkpt>
      <trkpt lat="44.21964" lon="4.74177">
        <ele>170.76184184293</ele>
        <time>2022-06-29T08:08:05.100Z</time>
      </trkpt>
      <trkpt lat="44.21975" lon="4.74174">
        <ele>172.75800763271</ele>
        <time>2022-06-29T08:08:09.343Z</time>
      </trkpt>
      <trkpt lat="44.22034" lon="4.74142">
        <ele>175.34939604092</ele>
        <time>2022-06-29T08:08:13.607Z</time>
      </trkpt>
      <trkpt lat="44.22074" lon="4.74127">
        <ele>177.79163500222</ele>
        <time>2022-06-29T08:08:17.885Z</time>
      </trkpt>
      <trkpt lat="44.22088" lon="4.74118">
        <ele>179.96357622399</ele>
        <time>2022-06-29T08:08:22.168Z</time>
      </trkpt>
      <trkpt lat="44.221" lon="4.74105">
        <ele>182.17195983321</ele>
        <time>2022-06-29T08:08:26.456Z</time>
      </trkpt>
      <trkpt lat="44.22116" lon="4.74092">
        <ele>184.36743519126</ele>
        <time>2022-06-29T08:08:30.750Z</time>
      </trkpt>
      <trkpt lat="44.22119" lon="4.74084">
        <ele>186.40911928355</ele>
        <time>2022-06-29T08:08:35.047Z</time>
      </trkpt>
      <trkpt lat="44.22118" lon="4.74076">
        <ele>188.36653728729</ele>
        <time>2022-06-29T08:08:39.345Z</time>
      </trkpt>
      <trkpt lat="44.22095" lon="4.74056">
        <ele>190.17216461332</ele>
        <time>2022-06-29T08:08:43.653Z</time>
      </trkpt>
      <trkpt lat="44.22076" lon="4.74026">
        <ele>192.04935618684</ele>
        <time>2022-06-29T08:08:47.970Z</time>
      </trkpt>
      <trkpt lat="44.22072" lon="4.74007">
        <ele>193.83397347742</ele>
        <time>2022-06-29T08:08:52.292Z</time>
      </trkpt>
      <trkpt lat="44.22072" lon="4.73992">
        <ele>195.57685835211</ele>
        <time>2022-06-29T08:08:56.617Z</time>
      </trkpt>
      <trkpt lat="44.22075" lon="4.73984">
        <ele>197.27136658342</ele>
        <time>2022-06-29T08:09:00.945Z</time>
      </trkpt>
      <trkpt lat="44.22083" lon="4.73975">
        <ele>198.91580672663</ele>
        <time>2022-06-29T08:09:05.276Z</time>
      </trkpt>
      <trkpt lat="44.22116" lon="4.73969">
        <ele>200.65861947156</ele>
        <time>2022-06-29T08:09:09.618Z</time>
      </trkpt>
      <trkpt lat="44.22146" lon="4.7396">
        <ele>202.09164160744</ele>
        <time>2022-06-29T08:09:13.970Z</time>
      </trkpt>
      <trkpt lat="44.22172" lon="4.73959">
        <ele>203.42999212929</ele>
        <time>2022-06-29T08:09:18.331Z</time>
      </trkpt>
      <trkpt lat="44.22178" lon="4.73955">
        <ele>204.63918521982</ele>
        <time>2022-06-29T08:09:22.694Z</time>
      </trkpt>
      <trkpt lat="44.22183" lon="4.73949">
        <ele>205.7326293583</ele>
        <time>2022-06-29T08:09:27.059Z</time>
      </trkpt>
      <trkpt lat="44.22183" lon="4.73949">
        <ele>206.74119667889</ele>
        <time>2022-06-29T08:09:31.424Z</time>
      </trkpt>
      <trkpt lat="44.22183" lon="4.73949">
        <ele>207.66510118983</ele>
        <time>2022-06-29T08:09:35.789Z</time>
      </trkpt>
      <trkpt lat="44.22184" lon="4.73948">
        <ele>208.50505433897</ele>
        <time>2022-06-29T08:09:40.155Z</time>
      </trkpt>
      <trkpt lat="44.2219" lon="4.73922">
        <ele>209.20287743415</ele>
        <time>2022-06-29T08:09:44.527Z</time>
      </trkpt>
      <trkpt lat="44.22192" lon="4.73916">
        <ele>209.88057915666</ele>
        <time>2022-06-29T08:09:48.901Z</time>
      </trkpt>
      <trkpt lat="44.22192" lon="4.73921">
        <ele>210.51071451271</ele>
        <time>2022-06-29T08:09:53.276Z</time>
      </trkpt>
      <trkpt lat="44.22193" lon="4.7393">
        <ele>211.07849477997</ele>
        <time>2022-06-29T08:09:57.653Z</time>
      </trkpt>
      <trkpt lat="44.22202" lon="4.73947">
        <ele>211.64293940817</ele>
        <time>2022-06-29T08:10:02.035Z</time>
      </trkpt>
      <trkpt lat="44.22213" lon="4.73969">
        <ele>212.06502499577</ele>
        <time>2022-06-29T08:10:06.423Z</time>
      </trkpt>
      <trkpt lat="44.22243" lon="4.74027">
        <ele>212.522785635</ele>
        <time>2022-06-29T08:10:10.829Z</time>
      </trkpt>
      <trkpt lat="44.22246" lon="4.74038">
        <ele>212.69945568367</ele>
        <time>2022-06-29T08:10:15.237Z</time>
      </trkpt>
      <trkpt lat="44.22251" lon="4.74082">
        <ele>212.84236055449</ele>
        <time>2022-06-29T08:10:19.656Z</time>
      </trkpt>
      <trkpt lat="44.22258" lon="4.74113">
        <ele>212.82388036086</ele>
        <time>2022-06-29T08:10:24.083Z</time>
      </trkpt>
      <trkpt lat="44.2226" lon="4.74127">
        <ele>212.27544292047</ele>
        <time>2022-06-29T08:10:28.513Z</time>
      </trkpt>
      <trkpt lat="44.2226" lon="4.74158">
        <ele>211.76305499438</ele>
        <time>2022-06-29T08:10:32.951Z</time>
      </trkpt>
      <trkpt lat="44.22274" lon="4.74213">
        <ele>211.0706795025</ele>
        <time>2022-06-29T08:10:37.403Z</time>
      </trkpt>
      <trkpt lat="44.22274" lon="4.74245">
        <ele>210.11650197116</ele>
        <time>2022-06-29T08:10:41.862Z</time>
      </trkpt>
      <trkpt lat="44.22277" lon="4.74256">
        <ele>209.21288802648</ele>
        <time>2022-06-29T08:10:46.324Z</time>
      </trkpt>
      <trkpt lat="44.22289" lon="4.74278">
        <ele>208.1069625541</ele>
        <time>2022-06-29T08:10:50.793Z</time>
      </trkpt>
      <trkpt lat="44.22295" lon="4.74306">
        <ele>206.93637197292</ele>
        <time>2022-06-29T08:10:55.269Z</time>
      </trkpt>
      <trkpt lat="44.223" lon="4.74314">
        <ele>205.78394308143</ele>
        <time>2022-06-29T08:10:59.747Z</time>
      </trkpt>
      <trkpt lat="44.22332" lon="4.74357">
        <ele>204.44051236824</ele>
        <time>2022-06-29T08:11:04.240Z</time>
      </trkpt>
      <trkpt lat="44.22345" lon="4.74384">
        <ele>203.04316987265</ele>
        <time>2022-06-29T08:11:08.741Z</time>
      </trkpt>
      <trkpt lat="44.22347" lon="4.74399">
        <ele>201.646162838</ele>
        <time>2022-06-29T08:11:13.246Z</time>
      </trkpt>
      <trkpt lat="44.22347" lon="4.74414">
        <ele>200.21870995024</ele>
        <time>2022-06-29T08:11:17.754Z</time>
      </trkpt>
      <trkpt lat="44.22344" lon="4.74501">
        <ele>198.41407234691</ele>
        <time>2022-06-29T08:11:22.283Z</time>
      </trkpt>
      <trkpt lat="44.22339" lon="4.74525">
        <ele>196.86479610662</ele>
        <time>2022-06-29T08:11:26.818Z</time>
      </trkpt>
      <trkpt lat="44.2234" lon="4.7453">
        <ele>195.33361681771</ele>
        <time>2022-06-29T08:11:31.354Z</time>
      </trkpt>
      <trkpt lat="44.2234" lon="4.7453">
        <ele>193.77668078812</ele>
        <time>2022-06-29T08:11:35.890Z</time>
      </trkpt>
      <trkpt lat="44.2234" lon="4.74536">
        <ele>192.16259933126</ele>
        <time>2022-06-29T08:11:40.428Z</time>
      </trkpt>
      <trkpt lat="44.22328" lon="4.74586">
        <ele>190.45145083014</ele>
        <time>2022-06-29T08:11:44.978Z</time>
      </trkpt>
      <trkpt lat="44.22309" lon="4.74635">
        <ele>188.50824989356</ele>
        <time>2022-06-29T08:11:49.542Z</time>
      </trkpt>
      <trkpt lat="44.22304" lon="4.74656">
        <ele>186.6895676456</ele>
        <time>2022-06-29T08:11:54.111Z</time>
      </trkpt>
      <trkpt lat="44.22297" lon="4.74715">
        <ele>184.87471459398</ele>
        <time>2022-06-29T08:11:58.694Z</time>
      </trkpt>
      <trkpt lat="44.22296" lon="4.74734">
        <ele>182.97765534863</ele>
        <time>2022-06-29T08:12:03.282Z</time>
      </trkpt>
      <trkpt lat="44.223" lon="4.7474">
        <ele>181.05627817884</ele>
        <time>2022-06-29T08:12:07.872Z</time>
      </trkpt>
      <trkpt lat="44.22315" lon="4.7479">
        <ele>179.09567105549</ele>
        <time>2022-06-29T08:12:12.475Z</time>
      </trkpt>
      <trkpt lat="44.2233" lon="4.74857">
        <ele>176.84769287882</ele>
        <time>2022-06-29T08:12:17.095Z</time>
      </trkpt>
      <trkpt lat="44.22338" lon="4.74883">
        <ele>174.52925859473</ele>
        <time>2022-06-29T08:12:21.721Z</time>
      </trkpt>
      <trkpt lat="44.22356" lon="4.74923">
        <ele>172.06646138945</ele>
        <time>2022-06-29T08:12:26.359Z</time>
      </trkpt>
      <trkpt lat="44.22374" lon="4.74969">
        <ele>169.24540856434</ele>
        <time>2022-06-29T08:12:31.009Z</time>
      </trkpt>
      <trkpt lat="44.22384" lon="4.75006">
        <ele>166.78302036722</ele>
        <time>2022-06-29T08:12:35.669Z</time>
      </trkpt>
      <trkpt lat="44.22394" lon="4.75048">
        <ele>164.2608232407</ele>
        <time>2022-06-29T08:12:40.339Z</time>
      </trkpt>
      <trkpt lat="44.224" lon="4.75055">
        <ele>161.88905709019</ele>
        <time>2022-06-29T08:12:45.012Z</time>
      </trkpt>
      <trkpt lat="44.22408" lon="4.75057">
        <ele>159.51229307506</ele>
        <time>2022-06-29T08:12:49.687Z</time>
      </trkpt>
      <trkpt lat="44.22422" lon="4.75057">
        <ele>156.99007274456</ele>
        <time>2022-06-29T08:12:54.367Z</time>
      </trkpt>
      <trkpt lat="44.22441" lon="4.75054">
        <ele>154.4524032262</ele>
        <time>2022-06-29T08:12:59.054Z</time>
      </trkpt>
      <trkpt lat="44.22461" lon="4.75046">
        <ele>151.853902442</ele>
        <time>2022-06-29T08:13:03.747Z</time>
      </trkpt>
      <trkpt lat="44.2247" lon="4.7504">
        <ele>149.45182300391</ele>
        <time>2022-06-29T08:13:08.444Z</time>
      </trkpt>
      <trkpt lat="44.2248" lon="4.75024">
        <ele>147.10148362342</ele>
        <time>2022-06-29T08:13:13.146Z</time>
      </trkpt>
      <trkpt lat="44.22482" lon="4.75011">
        <ele>145.01004518712</ele>
        <time>2022-06-29T08:13:17.851Z</time>
      </trkpt>
      <trkpt lat="44.22478" lon="4.74949">
        <ele>142.87253203295</ele>
        <time>2022-06-29T08:13:22.571Z</time>
      </trkpt>
      <trkpt lat="44.22479" lon="4.74941">
        <ele>140.77426918516</ele>
        <time>2022-06-29T08:13:27.293Z</time>
      </trkpt>
      <trkpt lat="44.22482" lon="4.74936">
        <ele>138.7167826629</ele>
        <time>2022-06-29T08:13:32.017Z</time>
      </trkpt>
      <trkpt lat="44.22486" lon="4.74942">
        <ele>136.72772907799</ele>
        <time>2022-06-29T08:13:36.743Z</time>
      </trkpt>
      <trkpt lat="44.22495" lon="4.7497">
        <ele>134.8248348841</ele>
        <time>2022-06-29T08:13:41.476Z</time>
      </trkpt>
      <trkpt lat="44.22505" lon="4.74992">
        <ele>132.8238382946</ele>
        <time>2022-06-29T08:13:46.215Z</time>
      </trkpt>
      <trkpt lat="44.22508" lon="4.75013">
        <ele>130.92360763465</ele>
        <time>2022-06-29T08:13:50.959Z</time>
      </trkpt>
      <trkpt lat="44.22511" lon="4.75045">
        <ele>128.95781463194</ele>
        <time>2022-06-29T08:13:55.711Z</time>
      </trkpt>
      <trkpt lat="44.225" lon="4.75099">
        <ele>127.28625624907</ele>
        <time>2022-06-29T08:14:00.476Z</time>
      </trkpt>
      <trkpt lat="44.225" lon="4.75119">
        <ele>125.70363537401</ele>
        <time>2022-06-29T08:14:05.246Z</time>
      </trkpt>
      <trkpt lat="44.225" lon="4.75119">
        <ele>124.3229976687</ele>
        <time>2022-06-29T08:14:10.016Z</time>
      </trkpt>
      <trkpt lat="44.225" lon="4.75119">
        <ele>123.04535829748</ele>
        <time>2022-06-29T08:14:14.786Z</time>
      </trkpt>
      <trkpt lat="44.225" lon="4.7515">
        <ele>121.78770751766</ele>
        <time>2022-06-29T08:14:19.564Z</time>
      </trkpt>
      <trkpt lat="44.22498" lon="4.75242">
        <ele>120.2911099944</ele>
        <time>2022-06-29T08:14:24.364Z</time>
      </trkpt>
      <trkpt lat="44.22465" lon="4.75315">
        <ele>119.34245981342</ele>
        <time>2022-06-29T08:14:29.185Z</time>
      </trkpt>
      <trkpt lat="44.22449" lon="4.7534">
        <ele>118.66583717325</ele>
        <time>2022-06-29T08:14:34.014Z</time>
      </trkpt>
      <trkpt lat="44.22437" lon="4.75354">
        <ele>118.20606850559</ele>
        <time>2022-06-29T08:14:38.848Z</time>
      </trkpt>
      <trkpt lat="44.22424" lon="4.75365">
        <ele>117.96855670958</ele>
        <time>2022-06-29T08:14:43.687Z</time>
      </trkpt>
      <trkpt lat="44.22396" lon="4.75383">
        <ele>117.8970873399</ele>
        <time>2022-06-29T08:14:48.536Z</time>
      </trkpt>
      <trkpt lat="44.22365" lon="4.75389">
        <ele>118.0274886507</ele>
        <time>2022-06-29T08:14:53.395Z</time>
      </trkpt>
      <trkpt lat="44.22359" lon="4.75387">
        <ele>118.22389629</ele>
        <time>2022-06-29T08:14:58.257Z</time>
      </trkpt>
      <trkpt lat="44.22345" lon="4.75384">
        <ele>118.5437342277</ele>
        <time>2022-06-29T08:15:03.123Z</time>
      </trkpt>
      <trkpt lat="44.22317" lon="4.75368">
        <ele>118.9987033223</ele>
        <time>2022-06-29T08:15:07.999Z</time>
      </trkpt>
      <trkpt lat="44.22261" lon="4.75323">
        <ele>119.64688648312</ele>
        <time>2022-06-29T08:15:12.897Z</time>
      </trkpt>
      <trkpt lat="44.22261" lon="4.75323">
        <ele>120.11212803895</ele>
        <time>2022-06-29T08:15:17.795Z</time>
      </trkpt>
      <trkpt lat="44.22194" lon="4.7527">
        <ele>120.86942296129</ele>
        <time>2022-06-29T08:15:22.718Z</time>
      </trkpt>
      <trkpt lat="44.22178" lon="4.75254">
        <ele>121.2896048072</ele>
        <time>2022-06-29T08:15:27.648Z</time>
      </trkpt>
      <trkpt lat="44.22164" lon="4.75228">
        <ele>121.62536906138</ele>
        <time>2022-06-29T08:15:32.586Z</time>
      </trkpt>
      <trkpt lat="44.22133" lon="4.7516">
        <ele>121.79628255054</ele>
        <time>2022-06-29T08:15:37.543Z</time>
      </trkpt>
      <trkpt lat="44.22119" lon="4.75145">
        <ele>122.02376102487</ele>
        <time>2022-06-29T08:15:42.506Z</time>
      </trkpt>
      <trkpt lat="44.22093" lon="4.75093">
        <ele>122.01060717534</ele>
        <time>2022-06-29T08:15:47.484Z</time>
      </trkpt>
      <trkpt lat="44.22078" lon="4.75076">
        <ele>122.12600688871</ele>
        <time>2022-06-29T08:15:52.469Z</time>
      </trkpt>
      <trkpt lat="44.22035" lon="4.75052">
        <ele>122.44190994871</ele>
        <time>2022-06-29T08:15:57.469Z</time>
      </trkpt>
      <trkpt lat="44.21994" lon="4.7503">
        <ele>122.33362061786</ele>
        <time>2022-06-29T08:16:02.484Z</time>
      </trkpt>
      <trkpt lat="44.21984" lon="4.75028">
        <ele>121.82289365196</ele>
        <time>2022-06-29T08:16:07.502Z</time>
      </trkpt>
      <trkpt lat="44.21924" lon="4.75031">
        <ele>120.82392364684</ele>
        <time>2022-06-29T08:16:12.540Z</time>
      </trkpt>
      <trkpt lat="44.21888" lon="4.75036">
        <ele>120.05675358407</ele>
        <time>2022-06-29T08:16:17.590Z</time>
      </trkpt>
      <trkpt lat="44.21854" lon="4.75045">
        <ele>119.27571520158</ele>
        <time>2022-06-29T08:16:22.652Z</time>
      </trkpt>
      <trkpt lat="44.21845" lon="4.75046">
        <ele>118.53814871097</ele>
        <time>2022-06-29T08:16:27.717Z</time>
      </trkpt>
      <trkpt lat="44.21833" lon="4.75044">
        <ele>117.70548354273</ele>
        <time>2022-06-29T08:16:32.786Z</time>
      </trkpt>
      <trkpt lat="44.21801" lon="4.75032">
        <ele>116.76712453979</ele>
        <time>2022-06-29T08:16:37.866Z</time>
      </trkpt>
      <trkpt lat="44.21749" lon="4.74999">
        <ele>115.8294844185</ele>
        <time>2022-06-29T08:16:42.965Z</time>
      </trkpt>
      <trkpt lat="44.21746" lon="4.74998">
        <ele>114.98173045405</ele>
        <time>2022-06-29T08:16:48.065Z</time>
      </trkpt>
      <trkpt lat="44.21746" lon="4.74998">
        <ele>114.09852152627</ele>
        <time>2022-06-29T08:16:53.165Z</time>
      </trkpt>
      <trkpt lat="44.21743" lon="4.74998">
        <ele>113.17131950559</ele>
        <time>2022-06-29T08:16:58.266Z</time>
      </trkpt>
      <trkpt lat="44.21732" lon="4.74999">
        <ele>112.19371588227</ele>
        <time>2022-06-29T08:17:03.371Z</time>
      </trkpt>
      <trkpt lat="44.21732" lon="4.74999">
        <ele>111.25333298684</ele>
        <time>2022-06-29T08:17:08.476Z</time>
      </trkpt>
      <trkpt lat="44.21688" lon="4.75019">
        <ele>110.15401355359</ele>
        <time>2022-06-29T08:17:13.596Z</time>
      </trkpt>
      <trkpt lat="44.21599" lon="4.74885">
        <ele>109.26698160667</ele>
        <time>2022-06-29T08:17:18.760Z</time>
      </trkpt>
      <trkpt lat="44.21522" lon="4.74769">
        <ele>108.67983198924</ele>
        <time>2022-06-29T08:17:23.962Z</time>
      </trkpt>
      <trkpt lat="44.21454" lon="4.74668">
        <ele>107.97972448902</ele>
        <time>2022-06-29T08:17:29.197Z</time>
      </trkpt>
      <trkpt lat="44.21454" lon="4.74668">
        <ele>107.67900233496</ele>
        <time>2022-06-29T08:17:34.432Z</time>
      </trkpt>
      <trkpt lat="44.21374" lon="4.74547">
        <ele>103.54953295538</ele>
        <time>2022-06-29T08:17:39.706Z</time>
      </trkpt>
      <trkpt lat="44.21387" lon="4.74536">
        <ele>104.55976285087</ele>
        <time>2022-06-29T08:17:44.985Z</time>
      </trkpt>
      <trkpt lat="44.21394" lon="4.74535">
        <ele>105.50759556073</ele>
        <time>2022-06-29T08:17:50.267Z</time>
      </trkpt>
      <trkpt lat="44.21402" lon="4.74532">
        <ele>106.48574411842</ele>
        <time>2022-06-29T08:17:55.552Z</time>
      </trkpt>
      <trkpt lat="44.21434" lon="4.74525">
        <ele>107.56676277095</ele>
        <time>2022-06-29T08:18:00.847Z</time>
      </trkpt>
      <trkpt lat="44.21447" lon="4.74528">
        <ele>108.42148686439</ele>
        <time>2022-06-29T08:18:06.147Z</time>
      </trkpt>
      <trkpt lat="44.21447" lon="4.74528">
        <ele>108.51679750173</ele>
        <time>2022-06-29T08:18:11.447Z</time>
      </trkpt>
      <trkpt lat="44.21447" lon="4.74528">
        <ele>108.64565259087</ele>
        <time>2022-06-29T08:18:16.747Z</time>
      </trkpt>
      <trkpt lat="44.21449" lon="4.74528">
        <ele>108.80144072538</ele>
        <time>2022-06-29T08:18:22.047Z</time>
      </trkpt>
      <trkpt lat="44.21454" lon="4.74527">
        <ele>108.977018678</ele>
        <time>2022-06-29T08:18:27.349Z</time>
      </trkpt>
      <trkpt lat="44.21458" lon="4.74524">
        <ele>109.18672568317</ele>
        <time>2022-06-29T08:18:32.653Z</time>
      </trkpt>
      <trkpt lat="44.21451" lon="4.74522">
        <ele>109.29825724891</ele>
        <time>2022-06-29T08:18:37.959Z</time>
      </trkpt>
    </trkseg>
  </trk>
</gpx>